<?xml version="1.0" encoding="UTF-8" standalone="no" ?>
<gpx xmlns="http://www.topografix.com/GPX/1/1" xmlns:xsi="http://www.w3.org/2001/XMLSchema-instance" xsi:schemaLocation="http://www.topografix.com/GPX/1/1 http://www.topografix.com/GPX/1/1/gpx.xsd" version="1.1" creator="VisuGPX - https://www.visugpx.com">
  <metadata>
    <name>Crêtes de Revuaire et gorges du Riou</name>
  </metadata>
  <trk>
    <name><![CDATA[18/05/2020 09:09:08  crêtes de Revuaire et gorges du Riou]]></name>
    <extensions>
      <line xmlns="http://www.topografix.com/GPX/gpx_style/0/2">
        <color>0000FF</color>
        <width>4</width>
      </line>
    </extensions>
    <trkseg>
      <trkpt lat="44.37838" lon="5.76715">
        <ele>716.59997558594</ele>
        <time>2020-05-18T07:09:08Z</time>
      </trkpt>
      <trkpt lat="44.37838" lon="5.76715">
        <ele>716.59997558594</ele>
        <time>2020-05-18T07:09:09Z</time>
      </trkpt>
      <trkpt lat="44.37838" lon="5.76716">
        <ele>716.40002441406</ele>
        <time>2020-05-18T07:10:01Z</time>
      </trkpt>
      <trkpt lat="44.37841" lon="5.76724">
        <ele>716.79998779297</ele>
        <time>2020-05-18T07:10:37Z</time>
      </trkpt>
      <trkpt lat="44.37837" lon="5.76719">
        <ele>716.79998779297</ele>
        <time>2020-05-18T07:11:21Z</time>
      </trkpt>
      <trkpt lat="44.37838" lon="5.76718">
        <ele>716.40002441406</ele>
        <time>2020-05-18T07:11:52Z</time>
      </trkpt>
      <trkpt lat="44.37842" lon="5.76722">
        <ele>716.40002441406</ele>
        <time>2020-05-18T07:12:15Z</time>
      </trkpt>
      <trkpt lat="44.37842" lon="5.76724">
        <ele>716.20001220703</ele>
        <time>2020-05-18T07:12:51Z</time>
      </trkpt>
      <trkpt lat="44.37841" lon="5.76726">
        <ele>716</ele>
        <time>2020-05-18T07:13:22Z</time>
      </trkpt>
      <trkpt lat="44.37845" lon="5.76731">
        <ele>716</ele>
        <time>2020-05-18T07:13:56Z</time>
      </trkpt>
      <trkpt lat="44.37846" lon="5.76732">
        <ele>716</ele>
        <time>2020-05-18T07:13:57Z</time>
      </trkpt>
      <trkpt lat="44.3786" lon="5.76744">
        <ele>716.79998779297</ele>
        <time>2020-05-18T07:14:13Z</time>
      </trkpt>
      <trkpt lat="44.37864" lon="5.76747">
        <ele>717.40002441406</ele>
        <time>2020-05-18T07:14:18Z</time>
      </trkpt>
      <trkpt lat="44.37867" lon="5.76748">
        <ele>717.79998779297</ele>
        <time>2020-05-18T07:14:22Z</time>
      </trkpt>
      <trkpt lat="44.37882" lon="5.76759">
        <ele>719.20001220703</ele>
        <time>2020-05-18T07:14:38Z</time>
      </trkpt>
      <trkpt lat="44.37888" lon="5.76768">
        <ele>720</ele>
        <time>2020-05-18T07:14:48Z</time>
      </trkpt>
      <trkpt lat="44.37889" lon="5.76771">
        <ele>720.20001220703</ele>
        <time>2020-05-18T07:14:51Z</time>
      </trkpt>
      <trkpt lat="44.379" lon="5.76798">
        <ele>721.20001220703</ele>
        <time>2020-05-18T07:15:10Z</time>
      </trkpt>
      <trkpt lat="44.37901" lon="5.76802">
        <ele>721.59997558594</ele>
        <time>2020-05-18T07:15:13Z</time>
      </trkpt>
      <trkpt lat="44.37907" lon="5.76821">
        <ele>722.59997558594</ele>
        <time>2020-05-18T07:15:26Z</time>
      </trkpt>
      <trkpt lat="44.37909" lon="5.76841">
        <ele>723.40002441406</ele>
        <time>2020-05-18T07:15:38Z</time>
      </trkpt>
      <trkpt lat="44.37912" lon="5.76864">
        <ele>725</ele>
        <time>2020-05-18T07:15:55Z</time>
      </trkpt>
      <trkpt lat="44.37915" lon="5.76879">
        <ele>726.40002441406</ele>
        <time>2020-05-18T07:16:07Z</time>
      </trkpt>
      <trkpt lat="44.37917" lon="5.76883">
        <ele>726.79998779297</ele>
        <time>2020-05-18T07:16:10Z</time>
      </trkpt>
      <trkpt lat="44.37919" lon="5.76885">
        <ele>727</ele>
        <time>2020-05-18T07:16:13Z</time>
      </trkpt>
      <trkpt lat="44.37924" lon="5.76886">
        <ele>727.20001220703</ele>
        <time>2020-05-18T07:16:17Z</time>
      </trkpt>
      <trkpt lat="44.37929" lon="5.7689">
        <ele>727.40002441406</ele>
        <time>2020-05-18T07:16:22Z</time>
      </trkpt>
      <trkpt lat="44.37947" lon="5.76892">
        <ele>727.40002441406</ele>
        <time>2020-05-18T07:16:37Z</time>
      </trkpt>
      <trkpt lat="44.37962" lon="5.76902">
        <ele>727.20001220703</ele>
        <time>2020-05-18T07:16:51Z</time>
      </trkpt>
      <trkpt lat="44.37979" lon="5.76912">
        <ele>727.79998779297</ele>
        <time>2020-05-18T07:17:08Z</time>
      </trkpt>
      <trkpt lat="44.37997" lon="5.76914">
        <ele>729</ele>
        <time>2020-05-18T07:17:24Z</time>
      </trkpt>
      <trkpt lat="44.38003" lon="5.76914">
        <ele>729.20001220703</ele>
        <time>2020-05-18T07:17:29Z</time>
      </trkpt>
      <trkpt lat="44.38006" lon="5.76914">
        <ele>729.40002441406</ele>
        <time>2020-05-18T07:17:32Z</time>
      </trkpt>
      <trkpt lat="44.38028" lon="5.76912">
        <ele>731.20001220703</ele>
        <time>2020-05-18T07:17:51Z</time>
      </trkpt>
      <trkpt lat="44.38045" lon="5.7691">
        <ele>732</ele>
        <time>2020-05-18T07:18:06Z</time>
      </trkpt>
      <trkpt lat="44.38052" lon="5.76907">
        <ele>733</ele>
        <time>2020-05-18T07:18:16Z</time>
      </trkpt>
      <trkpt lat="44.38055" lon="5.76906">
        <ele>733.20001220703</ele>
        <time>2020-05-18T07:18:19Z</time>
      </trkpt>
      <trkpt lat="44.38071" lon="5.76896">
        <ele>734.20001220703</ele>
        <time>2020-05-18T07:18:35Z</time>
      </trkpt>
      <trkpt lat="44.38081" lon="5.76884">
        <ele>736</ele>
        <time>2020-05-18T07:18:49Z</time>
      </trkpt>
      <trkpt lat="44.38094" lon="5.76873">
        <ele>736.79998779297</ele>
        <time>2020-05-18T07:19:04Z</time>
      </trkpt>
      <trkpt lat="44.38099" lon="5.76873">
        <ele>736.79998779297</ele>
        <time>2020-05-18T07:19:08Z</time>
      </trkpt>
      <trkpt lat="44.38109" lon="5.76878">
        <ele>736.59997558594</ele>
        <time>2020-05-18T07:19:24Z</time>
      </trkpt>
      <trkpt lat="44.38118" lon="5.76883">
        <ele>736.59997558594</ele>
        <time>2020-05-18T07:19:34Z</time>
      </trkpt>
      <trkpt lat="44.38128" lon="5.76908">
        <ele>737.59997558594</ele>
        <time>2020-05-18T07:19:51Z</time>
      </trkpt>
      <trkpt lat="44.3813" lon="5.76913">
        <ele>737.79998779297</ele>
        <time>2020-05-18T07:19:54Z</time>
      </trkpt>
      <trkpt lat="44.38132" lon="5.76921">
        <ele>738</ele>
        <time>2020-05-18T07:19:59Z</time>
      </trkpt>
      <trkpt lat="44.3813" lon="5.76943">
        <ele>739</ele>
        <time>2020-05-18T07:20:18Z</time>
      </trkpt>
      <trkpt lat="44.38119" lon="5.7696">
        <ele>739.59997558594</ele>
        <time>2020-05-18T07:20:34Z</time>
      </trkpt>
      <trkpt lat="44.38111" lon="5.76982">
        <ele>739.40002441406</ele>
        <time>2020-05-18T07:20:50Z</time>
      </trkpt>
      <trkpt lat="44.38106" lon="5.7699">
        <ele>740.20001220703</ele>
        <time>2020-05-18T07:21:04Z</time>
      </trkpt>
      <trkpt lat="44.38103" lon="5.77007">
        <ele>740.79998779297</ele>
        <time>2020-05-18T07:21:25Z</time>
      </trkpt>
      <trkpt lat="44.38109" lon="5.77028">
        <ele>741.59997558594</ele>
        <time>2020-05-18T07:21:42Z</time>
      </trkpt>
      <trkpt lat="44.38111" lon="5.77044">
        <ele>742.79998779297</ele>
        <time>2020-05-18T07:21:57Z</time>
      </trkpt>
      <trkpt lat="44.38112" lon="5.77047">
        <ele>743.40002441406</ele>
        <time>2020-05-18T07:22:00Z</time>
      </trkpt>
      <trkpt lat="44.38119" lon="5.77058">
        <ele>744</ele>
        <time>2020-05-18T07:22:11Z</time>
      </trkpt>
      <trkpt lat="44.38133" lon="5.77071">
        <ele>744.59997558594</ele>
        <time>2020-05-18T07:22:27Z</time>
      </trkpt>
      <trkpt lat="44.38144" lon="5.77079">
        <ele>746.59997558594</ele>
        <time>2020-05-18T07:22:43Z</time>
      </trkpt>
      <trkpt lat="44.38152" lon="5.77084">
        <ele>748.59997558594</ele>
        <time>2020-05-18T07:22:51Z</time>
      </trkpt>
      <trkpt lat="44.38156" lon="5.77084">
        <ele>749</ele>
        <time>2020-05-18T07:22:55Z</time>
      </trkpt>
      <trkpt lat="44.38168" lon="5.77089">
        <ele>749.59997558594</ele>
        <time>2020-05-18T07:23:10Z</time>
      </trkpt>
      <trkpt lat="44.38171" lon="5.77089">
        <ele>750.20001220703</ele>
        <time>2020-05-18T07:23:14Z</time>
      </trkpt>
      <trkpt lat="44.38173" lon="5.77089">
        <ele>750.40002441406</ele>
        <time>2020-05-18T07:23:16Z</time>
      </trkpt>
      <trkpt lat="44.38188" lon="5.77097">
        <ele>751.40002441406</ele>
        <time>2020-05-18T07:23:33Z</time>
      </trkpt>
      <trkpt lat="44.38192" lon="5.77102">
        <ele>751.20001220703</ele>
        <time>2020-05-18T07:23:39Z</time>
      </trkpt>
      <trkpt lat="44.382" lon="5.77111">
        <ele>751</ele>
        <time>2020-05-18T07:23:49Z</time>
      </trkpt>
      <trkpt lat="44.38213" lon="5.77096">
        <ele>750.79998779297</ele>
        <time>2020-05-18T07:24:06Z</time>
      </trkpt>
      <trkpt lat="44.38224" lon="5.77083">
        <ele>750.20001220703</ele>
        <time>2020-05-18T07:24:27Z</time>
      </trkpt>
      <trkpt lat="44.38238" lon="5.77067">
        <ele>748.59997558594</ele>
        <time>2020-05-18T07:24:51Z</time>
      </trkpt>
      <trkpt lat="44.38248" lon="5.77054">
        <ele>748.20001220703</ele>
        <time>2020-05-18T07:25:11Z</time>
      </trkpt>
      <trkpt lat="44.38257" lon="5.77052">
        <ele>747.40002441406</ele>
        <time>2020-05-18T07:25:29Z</time>
      </trkpt>
      <trkpt lat="44.38257" lon="5.77052">
        <ele>748</ele>
        <time>2020-05-18T07:26:04Z</time>
      </trkpt>
      <trkpt lat="44.38257" lon="5.77055">
        <ele>747.40002441406</ele>
        <time>2020-05-18T07:27:03Z</time>
      </trkpt>
      <trkpt lat="44.38259" lon="5.77068">
        <ele>747</ele>
        <time>2020-05-18T07:27:17Z</time>
      </trkpt>
      <trkpt lat="44.38267" lon="5.77083">
        <ele>746</ele>
        <time>2020-05-18T07:27:36Z</time>
      </trkpt>
      <trkpt lat="44.38271" lon="5.77101">
        <ele>745.79998779297</ele>
        <time>2020-05-18T07:27:55Z</time>
      </trkpt>
      <trkpt lat="44.38272" lon="5.77117">
        <ele>745.40002441406</ele>
        <time>2020-05-18T07:28:12Z</time>
      </trkpt>
      <trkpt lat="44.38267" lon="5.77129">
        <ele>744</ele>
        <time>2020-05-18T07:28:29Z</time>
      </trkpt>
      <trkpt lat="44.38265" lon="5.77138">
        <ele>743.79998779297</ele>
        <time>2020-05-18T07:28:37Z</time>
      </trkpt>
      <trkpt lat="44.38263" lon="5.77142">
        <ele>743.59997558594</ele>
        <time>2020-05-18T07:28:41Z</time>
      </trkpt>
      <trkpt lat="44.38259" lon="5.77153">
        <ele>743.40002441406</ele>
        <time>2020-05-18T07:28:50Z</time>
      </trkpt>
      <trkpt lat="44.38256" lon="5.77157">
        <ele>743.20001220703</ele>
        <time>2020-05-18T07:28:54Z</time>
      </trkpt>
      <trkpt lat="44.38252" lon="5.77175">
        <ele>743.20001220703</ele>
        <time>2020-05-18T07:29:08Z</time>
      </trkpt>
      <trkpt lat="44.3825" lon="5.77188">
        <ele>743.20001220703</ele>
        <time>2020-05-18T07:29:17Z</time>
      </trkpt>
      <trkpt lat="44.38251" lon="5.77199">
        <ele>743.20001220703</ele>
        <time>2020-05-18T07:29:26Z</time>
      </trkpt>
      <trkpt lat="44.38256" lon="5.77219">
        <ele>743</ele>
        <time>2020-05-18T07:29:41Z</time>
      </trkpt>
      <trkpt lat="44.3826" lon="5.77233">
        <ele>742.20001220703</ele>
        <time>2020-05-18T07:30:02Z</time>
      </trkpt>
      <trkpt lat="44.38261" lon="5.77237">
        <ele>742</ele>
        <time>2020-05-18T07:30:05Z</time>
      </trkpt>
      <trkpt lat="44.38264" lon="5.7725">
        <ele>741.79998779297</ele>
        <time>2020-05-18T07:30:16Z</time>
      </trkpt>
      <trkpt lat="44.38273" lon="5.77265">
        <ele>740.79998779297</ele>
        <time>2020-05-18T07:30:31Z</time>
      </trkpt>
      <trkpt lat="44.38281" lon="5.77274">
        <ele>740.40002441406</ele>
        <time>2020-05-18T07:30:45Z</time>
      </trkpt>
      <trkpt lat="44.38283" lon="5.77282">
        <ele>740.59997558594</ele>
        <time>2020-05-18T07:30:53Z</time>
      </trkpt>
      <trkpt lat="44.38287" lon="5.77295">
        <ele>740.79998779297</ele>
        <time>2020-05-18T07:31:08Z</time>
      </trkpt>
      <trkpt lat="44.38292" lon="5.77302">
        <ele>740.59997558594</ele>
        <time>2020-05-18T07:31:44Z</time>
      </trkpt>
      <trkpt lat="44.38298" lon="5.7732">
        <ele>741</ele>
        <time>2020-05-18T07:31:59Z</time>
      </trkpt>
      <trkpt lat="44.38302" lon="5.77341">
        <ele>741</ele>
        <time>2020-05-18T07:32:15Z</time>
      </trkpt>
      <trkpt lat="44.38303" lon="5.77345">
        <ele>741</ele>
        <time>2020-05-18T07:32:18Z</time>
      </trkpt>
      <trkpt lat="44.38305" lon="5.77351">
        <ele>741</ele>
        <time>2020-05-18T07:32:23Z</time>
      </trkpt>
      <trkpt lat="44.38305" lon="5.77362">
        <ele>740.79998779297</ele>
        <time>2020-05-18T07:32:39Z</time>
      </trkpt>
      <trkpt lat="44.3831" lon="5.77386">
        <ele>741</ele>
        <time>2020-05-18T07:32:54Z</time>
      </trkpt>
      <trkpt lat="44.38314" lon="5.77396">
        <ele>741</ele>
        <time>2020-05-18T07:33:03Z</time>
      </trkpt>
      <trkpt lat="44.38318" lon="5.77409">
        <ele>741</ele>
        <time>2020-05-18T07:33:13Z</time>
      </trkpt>
      <trkpt lat="44.38322" lon="5.77432">
        <ele>740.79998779297</ele>
        <time>2020-05-18T07:33:28Z</time>
      </trkpt>
      <trkpt lat="44.38323" lon="5.77434">
        <ele>740.79998779297</ele>
        <time>2020-05-18T07:33:30Z</time>
      </trkpt>
      <trkpt lat="44.38332" lon="5.77444">
        <ele>740.59997558594</ele>
        <time>2020-05-18T07:33:41Z</time>
      </trkpt>
      <trkpt lat="44.38346" lon="5.77462">
        <ele>740.40002441406</ele>
        <time>2020-05-18T07:33:58Z</time>
      </trkpt>
      <trkpt lat="44.38349" lon="5.77466">
        <ele>741</ele>
        <time>2020-05-18T07:34:04Z</time>
      </trkpt>
      <trkpt lat="44.38355" lon="5.77473">
        <ele>741</ele>
        <time>2020-05-18T07:34:11Z</time>
      </trkpt>
      <trkpt lat="44.38358" lon="5.77485">
        <ele>741</ele>
        <time>2020-05-18T07:34:19Z</time>
      </trkpt>
      <trkpt lat="44.38361" lon="5.77503">
        <ele>740.79998779297</ele>
        <time>2020-05-18T07:34:31Z</time>
      </trkpt>
      <trkpt lat="44.38361" lon="5.77514">
        <ele>740.79998779297</ele>
        <time>2020-05-18T07:34:39Z</time>
      </trkpt>
      <trkpt lat="44.38366" lon="5.7753">
        <ele>740</ele>
        <time>2020-05-18T07:34:52Z</time>
      </trkpt>
      <trkpt lat="44.38372" lon="5.77541">
        <ele>740.20001220703</ele>
        <time>2020-05-18T07:35:11Z</time>
      </trkpt>
      <trkpt lat="44.38371" lon="5.77546">
        <ele>739.40002441406</ele>
        <time>2020-05-18T07:36:11Z</time>
      </trkpt>
      <trkpt lat="44.38372" lon="5.77552">
        <ele>739.79998779297</ele>
        <time>2020-05-18T07:36:50Z</time>
      </trkpt>
      <trkpt lat="44.38381" lon="5.77571">
        <ele>739.40002441406</ele>
        <time>2020-05-18T07:37:08Z</time>
      </trkpt>
      <trkpt lat="44.38387" lon="5.77583">
        <ele>739.40002441406</ele>
        <time>2020-05-18T07:37:18Z</time>
      </trkpt>
      <trkpt lat="44.38391" lon="5.77596">
        <ele>739</ele>
        <time>2020-05-18T07:37:33Z</time>
      </trkpt>
      <trkpt lat="44.38395" lon="5.77612">
        <ele>738.59997558594</ele>
        <time>2020-05-18T07:37:50Z</time>
      </trkpt>
      <trkpt lat="44.38395" lon="5.77614">
        <ele>738.59997558594</ele>
        <time>2020-05-18T07:37:51Z</time>
      </trkpt>
      <trkpt lat="44.38401" lon="5.77638">
        <ele>738.20001220703</ele>
        <time>2020-05-18T07:38:06Z</time>
      </trkpt>
      <trkpt lat="44.38401" lon="5.7764">
        <ele>738.20001220703</ele>
        <time>2020-05-18T07:38:07Z</time>
      </trkpt>
      <trkpt lat="44.38402" lon="5.77658">
        <ele>738</ele>
        <time>2020-05-18T07:38:17Z</time>
      </trkpt>
      <trkpt lat="44.38404" lon="5.77671">
        <ele>737.59997558594</ele>
        <time>2020-05-18T07:38:26Z</time>
      </trkpt>
      <trkpt lat="44.38406" lon="5.7768">
        <ele>737.59997558594</ele>
        <time>2020-05-18T07:38:31Z</time>
      </trkpt>
      <trkpt lat="44.38406" lon="5.77702">
        <ele>737.59997558594</ele>
        <time>2020-05-18T07:38:46Z</time>
      </trkpt>
      <trkpt lat="44.38405" lon="5.77716">
        <ele>737.79998779297</ele>
        <time>2020-05-18T07:38:57Z</time>
      </trkpt>
      <trkpt lat="44.38405" lon="5.7772">
        <ele>737.79998779297</ele>
        <time>2020-05-18T07:39:00Z</time>
      </trkpt>
      <trkpt lat="44.38401" lon="5.77744">
        <ele>737.79998779297</ele>
        <time>2020-05-18T07:39:16Z</time>
      </trkpt>
      <trkpt lat="44.384" lon="5.77761">
        <ele>737.79998779297</ele>
        <time>2020-05-18T07:39:29Z</time>
      </trkpt>
      <trkpt lat="44.38397" lon="5.7778">
        <ele>737.59997558594</ele>
        <time>2020-05-18T07:39:41Z</time>
      </trkpt>
      <trkpt lat="44.38397" lon="5.77804">
        <ele>736.79998779297</ele>
        <time>2020-05-18T07:39:56Z</time>
      </trkpt>
      <trkpt lat="44.384" lon="5.77823">
        <ele>735.79998779297</ele>
        <time>2020-05-18T07:40:08Z</time>
      </trkpt>
      <trkpt lat="44.38402" lon="5.7783">
        <ele>735.40002441406</ele>
        <time>2020-05-18T07:40:12Z</time>
      </trkpt>
      <trkpt lat="44.38406" lon="5.77843">
        <ele>735</ele>
        <time>2020-05-18T07:40:22Z</time>
      </trkpt>
      <trkpt lat="44.38405" lon="5.77861">
        <ele>734</ele>
        <time>2020-05-18T07:40:35Z</time>
      </trkpt>
      <trkpt lat="44.38411" lon="5.77885">
        <ele>733.79998779297</ele>
        <time>2020-05-18T07:40:53Z</time>
      </trkpt>
      <trkpt lat="44.38412" lon="5.77896">
        <ele>734</ele>
        <time>2020-05-18T07:41:00Z</time>
      </trkpt>
      <trkpt lat="44.38413" lon="5.77904">
        <ele>734</ele>
        <time>2020-05-18T07:41:06Z</time>
      </trkpt>
      <trkpt lat="44.38413" lon="5.77909">
        <ele>734</ele>
        <time>2020-05-18T07:41:09Z</time>
      </trkpt>
      <trkpt lat="44.38415" lon="5.77936">
        <ele>734</ele>
        <time>2020-05-18T07:41:27Z</time>
      </trkpt>
      <trkpt lat="44.38418" lon="5.77957">
        <ele>734</ele>
        <time>2020-05-18T07:41:42Z</time>
      </trkpt>
      <trkpt lat="44.38421" lon="5.77983">
        <ele>734.79998779297</ele>
        <time>2020-05-18T07:41:59Z</time>
      </trkpt>
      <trkpt lat="44.38421" lon="5.77992">
        <ele>735.20001220703</ele>
        <time>2020-05-18T07:42:05Z</time>
      </trkpt>
      <trkpt lat="44.38429" lon="5.7801">
        <ele>736.79998779297</ele>
        <time>2020-05-18T07:42:19Z</time>
      </trkpt>
      <trkpt lat="44.38431" lon="5.78013">
        <ele>737</ele>
        <time>2020-05-18T07:42:22Z</time>
      </trkpt>
      <trkpt lat="44.38444" lon="5.78033">
        <ele>737.40002441406</ele>
        <time>2020-05-18T07:42:41Z</time>
      </trkpt>
      <trkpt lat="44.38444" lon="5.78035">
        <ele>737.40002441406</ele>
        <time>2020-05-18T07:42:43Z</time>
      </trkpt>
      <trkpt lat="44.38445" lon="5.78039">
        <ele>737.40002441406</ele>
        <time>2020-05-18T07:42:46Z</time>
      </trkpt>
      <trkpt lat="44.38454" lon="5.78054">
        <ele>737</ele>
        <time>2020-05-18T07:43:01Z</time>
      </trkpt>
      <trkpt lat="44.38463" lon="5.78074">
        <ele>736.59997558594</ele>
        <time>2020-05-18T07:43:16Z</time>
      </trkpt>
      <trkpt lat="44.38472" lon="5.78112">
        <ele>735.59997558594</ele>
        <time>2020-05-18T07:43:42Z</time>
      </trkpt>
      <trkpt lat="44.38474" lon="5.78123">
        <ele>735.20001220703</ele>
        <time>2020-05-18T07:43:50Z</time>
      </trkpt>
      <trkpt lat="44.38475" lon="5.78133">
        <ele>735</ele>
        <time>2020-05-18T07:43:56Z</time>
      </trkpt>
      <trkpt lat="44.38477" lon="5.78146">
        <ele>734.59997558594</ele>
        <time>2020-05-18T07:44:04Z</time>
      </trkpt>
      <trkpt lat="44.38487" lon="5.78176">
        <ele>733.20001220703</ele>
        <time>2020-05-18T07:44:24Z</time>
      </trkpt>
      <trkpt lat="44.38486" lon="5.78182">
        <ele>733.20001220703</ele>
        <time>2020-05-18T07:44:28Z</time>
      </trkpt>
      <trkpt lat="44.38495" lon="5.78216">
        <ele>732.40002441406</ele>
        <time>2020-05-18T07:44:49Z</time>
      </trkpt>
      <trkpt lat="44.38497" lon="5.78219">
        <ele>732.40002441406</ele>
        <time>2020-05-18T07:44:51Z</time>
      </trkpt>
      <trkpt lat="44.38501" lon="5.78228">
        <ele>732.20001220703</ele>
        <time>2020-05-18T07:44:58Z</time>
      </trkpt>
      <trkpt lat="44.38503" lon="5.78232">
        <ele>732.20001220703</ele>
        <time>2020-05-18T07:45:01Z</time>
      </trkpt>
      <trkpt lat="44.3851" lon="5.7824">
        <ele>732</ele>
        <time>2020-05-18T07:45:09Z</time>
      </trkpt>
      <trkpt lat="44.38512" lon="5.78244">
        <ele>732</ele>
        <time>2020-05-18T07:45:12Z</time>
      </trkpt>
      <trkpt lat="44.3852" lon="5.7826">
        <ele>732</ele>
        <time>2020-05-18T07:45:24Z</time>
      </trkpt>
      <trkpt lat="44.38525" lon="5.78273">
        <ele>732</ele>
        <time>2020-05-18T07:45:34Z</time>
      </trkpt>
      <trkpt lat="44.38541" lon="5.78298">
        <ele>732</ele>
        <time>2020-05-18T07:45:57Z</time>
      </trkpt>
      <trkpt lat="44.38552" lon="5.78323">
        <ele>732.59997558594</ele>
        <time>2020-05-18T07:46:16Z</time>
      </trkpt>
      <trkpt lat="44.38567" lon="5.78352">
        <ele>732.20001220703</ele>
        <time>2020-05-18T07:46:42Z</time>
      </trkpt>
      <trkpt lat="44.38586" lon="5.78369">
        <ele>731.40002441406</ele>
        <time>2020-05-18T07:47:03Z</time>
      </trkpt>
      <trkpt lat="44.38593" lon="5.7838">
        <ele>731.40002441406</ele>
        <time>2020-05-18T07:47:19Z</time>
      </trkpt>
      <trkpt lat="44.38609" lon="5.78399">
        <ele>731.59997558594</ele>
        <time>2020-05-18T07:47:50Z</time>
      </trkpt>
      <trkpt lat="44.38617" lon="5.78407">
        <ele>732.59997558594</ele>
        <time>2020-05-18T07:48:14Z</time>
      </trkpt>
      <trkpt lat="44.38624" lon="5.78424">
        <ele>733.20001220703</ele>
        <time>2020-05-18T07:48:40Z</time>
      </trkpt>
      <trkpt lat="44.38628" lon="5.7844">
        <ele>734.20001220703</ele>
        <time>2020-05-18T07:48:55Z</time>
      </trkpt>
      <trkpt lat="44.3864" lon="5.78451">
        <ele>735.59997558594</ele>
        <time>2020-05-18T07:49:18Z</time>
      </trkpt>
      <trkpt lat="44.38645" lon="5.78452">
        <ele>738.79998779297</ele>
        <time>2020-05-18T07:49:34Z</time>
      </trkpt>
      <trkpt lat="44.38652" lon="5.78453">
        <ele>742</ele>
        <time>2020-05-18T07:49:50Z</time>
      </trkpt>
      <trkpt lat="44.3866" lon="5.78469">
        <ele>745</ele>
        <time>2020-05-18T07:50:17Z</time>
      </trkpt>
      <trkpt lat="44.38669" lon="5.78479">
        <ele>746</ele>
        <time>2020-05-18T07:50:36Z</time>
      </trkpt>
      <trkpt lat="44.38676" lon="5.78505">
        <ele>747.20001220703</ele>
        <time>2020-05-18T07:51:00Z</time>
      </trkpt>
      <trkpt lat="44.38683" lon="5.78525">
        <ele>749.79998779297</ele>
        <time>2020-05-18T07:51:28Z</time>
      </trkpt>
      <trkpt lat="44.38686" lon="5.78534">
        <ele>751.79998779297</ele>
        <time>2020-05-18T07:51:45Z</time>
      </trkpt>
      <trkpt lat="44.38688" lon="5.78532">
        <ele>751.79998779297</ele>
        <time>2020-05-18T07:51:47Z</time>
      </trkpt>
      <trkpt lat="44.38694" lon="5.78518">
        <ele>754.59997558594</ele>
        <time>2020-05-18T07:52:06Z</time>
      </trkpt>
      <trkpt lat="44.38692" lon="5.78495">
        <ele>757.79998779297</ele>
        <time>2020-05-18T07:52:28Z</time>
      </trkpt>
      <trkpt lat="44.38696" lon="5.78496">
        <ele>761</ele>
        <time>2020-05-18T07:52:48Z</time>
      </trkpt>
      <trkpt lat="44.3869" lon="5.78504">
        <ele>762.20001220703</ele>
        <time>2020-05-18T07:53:11Z</time>
      </trkpt>
      <trkpt lat="44.38697" lon="5.78512">
        <ele>763.40002441406</ele>
        <time>2020-05-18T07:53:36Z</time>
      </trkpt>
      <trkpt lat="44.38699" lon="5.78527">
        <ele>766</ele>
        <time>2020-05-18T07:53:53Z</time>
      </trkpt>
      <trkpt lat="44.38705" lon="5.78544">
        <ele>769</ele>
        <time>2020-05-18T07:54:18Z</time>
      </trkpt>
      <trkpt lat="44.38705" lon="5.78544">
        <ele>769</ele>
        <time>2020-05-18T07:54:19Z</time>
      </trkpt>
      <trkpt lat="44.3872" lon="5.78541">
        <ele>772.20001220703</ele>
        <time>2020-05-18T07:54:42Z</time>
      </trkpt>
      <trkpt lat="44.38722" lon="5.78527">
        <ele>775.40002441406</ele>
        <time>2020-05-18T07:55:03Z</time>
      </trkpt>
      <trkpt lat="44.38723" lon="5.78525">
        <ele>775.79998779297</ele>
        <time>2020-05-18T07:55:07Z</time>
      </trkpt>
      <trkpt lat="44.38725" lon="5.78531">
        <ele>778.20001220703</ele>
        <time>2020-05-18T07:55:28Z</time>
      </trkpt>
      <trkpt lat="44.38728" lon="5.78528">
        <ele>780</ele>
        <time>2020-05-18T07:55:47Z</time>
      </trkpt>
      <trkpt lat="44.38731" lon="5.78527">
        <ele>782</ele>
        <time>2020-05-18T07:56:12Z</time>
      </trkpt>
      <trkpt lat="44.38737" lon="5.7852">
        <ele>784.79998779297</ele>
        <time>2020-05-18T07:56:31Z</time>
      </trkpt>
      <trkpt lat="44.3874" lon="5.78514">
        <ele>787</ele>
        <time>2020-05-18T07:56:50Z</time>
      </trkpt>
      <trkpt lat="44.38747" lon="5.78508">
        <ele>790</ele>
        <time>2020-05-18T07:57:13Z</time>
      </trkpt>
      <trkpt lat="44.38755" lon="5.78501">
        <ele>793.20001220703</ele>
        <time>2020-05-18T07:57:38Z</time>
      </trkpt>
      <trkpt lat="44.38759" lon="5.78498">
        <ele>795.79998779297</ele>
        <time>2020-05-18T07:58:02Z</time>
      </trkpt>
      <trkpt lat="44.38763" lon="5.7849">
        <ele>798.79998779297</ele>
        <time>2020-05-18T07:58:25Z</time>
      </trkpt>
      <trkpt lat="44.38769" lon="5.78492">
        <ele>802</ele>
        <time>2020-05-18T07:58:46Z</time>
      </trkpt>
      <trkpt lat="44.38777" lon="5.78482">
        <ele>804.79998779297</ele>
        <time>2020-05-18T07:59:09Z</time>
      </trkpt>
      <trkpt lat="44.38776" lon="5.78476">
        <ele>806.40002441406</ele>
        <time>2020-05-18T07:59:19Z</time>
      </trkpt>
      <trkpt lat="44.38776" lon="5.78465">
        <ele>809.40002441406</ele>
        <time>2020-05-18T07:59:43Z</time>
      </trkpt>
      <trkpt lat="44.38772" lon="5.78456">
        <ele>812.59997558594</ele>
        <time>2020-05-18T08:00:07Z</time>
      </trkpt>
      <trkpt lat="44.38772" lon="5.78453">
        <ele>814.79998779297</ele>
        <time>2020-05-18T08:00:30Z</time>
      </trkpt>
      <trkpt lat="44.38779" lon="5.78452">
        <ele>816.40002441406</ele>
        <time>2020-05-18T08:01:20Z</time>
      </trkpt>
      <trkpt lat="44.3877" lon="5.78442">
        <ele>819.59997558594</ele>
        <time>2020-05-18T08:01:37Z</time>
      </trkpt>
      <trkpt lat="44.38759" lon="5.78445">
        <ele>820.40002441406</ele>
        <time>2020-05-18T08:01:47Z</time>
      </trkpt>
      <trkpt lat="44.38746" lon="5.78438">
        <ele>820.40002441406</ele>
        <time>2020-05-18T08:02:04Z</time>
      </trkpt>
      <trkpt lat="44.38732" lon="5.78425">
        <ele>821.20001220703</ele>
        <time>2020-05-18T08:02:24Z</time>
      </trkpt>
      <trkpt lat="44.38715" lon="5.78413">
        <ele>822.59997558594</ele>
        <time>2020-05-18T08:02:45Z</time>
      </trkpt>
      <trkpt lat="44.38712" lon="5.78395">
        <ele>824.79998779297</ele>
        <time>2020-05-18T08:03:05Z</time>
      </trkpt>
      <trkpt lat="44.38711" lon="5.78388">
        <ele>827.40002441406</ele>
        <time>2020-05-18T08:03:26Z</time>
      </trkpt>
      <trkpt lat="44.38716" lon="5.7838">
        <ele>829.79998779297</ele>
        <time>2020-05-18T08:03:46Z</time>
      </trkpt>
      <trkpt lat="44.38723" lon="5.78371">
        <ele>832.79998779297</ele>
        <time>2020-05-18T08:04:08Z</time>
      </trkpt>
      <trkpt lat="44.38729" lon="5.78359">
        <ele>835.79998779297</ele>
        <time>2020-05-18T08:04:27Z</time>
      </trkpt>
      <trkpt lat="44.38734" lon="5.78344">
        <ele>838.40002441406</ele>
        <time>2020-05-18T08:04:45Z</time>
      </trkpt>
      <trkpt lat="44.38741" lon="5.78328">
        <ele>841.20001220703</ele>
        <time>2020-05-18T08:05:03Z</time>
      </trkpt>
      <trkpt lat="44.38743" lon="5.78314">
        <ele>844.40002441406</ele>
        <time>2020-05-18T08:05:26Z</time>
      </trkpt>
      <trkpt lat="44.38745" lon="5.78307">
        <ele>845</ele>
        <time>2020-05-18T08:06:13Z</time>
      </trkpt>
      <trkpt lat="44.38752" lon="5.78285">
        <ele>847.40002441406</ele>
        <time>2020-05-18T08:06:33Z</time>
      </trkpt>
      <trkpt lat="44.38755" lon="5.78266">
        <ele>849.79998779297</ele>
        <time>2020-05-18T08:06:50Z</time>
      </trkpt>
      <trkpt lat="44.38756" lon="5.78245">
        <ele>853</ele>
        <time>2020-05-18T08:07:11Z</time>
      </trkpt>
      <trkpt lat="44.38757" lon="5.78232">
        <ele>856</ele>
        <time>2020-05-18T08:07:30Z</time>
      </trkpt>
      <trkpt lat="44.38754" lon="5.78219">
        <ele>859.20001220703</ele>
        <time>2020-05-18T08:07:51Z</time>
      </trkpt>
      <trkpt lat="44.38753" lon="5.78204">
        <ele>862.20001220703</ele>
        <time>2020-05-18T08:08:10Z</time>
      </trkpt>
      <trkpt lat="44.38744" lon="5.78191">
        <ele>865.20001220703</ele>
        <time>2020-05-18T08:08:35Z</time>
      </trkpt>
      <trkpt lat="44.38737" lon="5.78185">
        <ele>868.20001220703</ele>
        <time>2020-05-18T08:08:52Z</time>
      </trkpt>
      <trkpt lat="44.38726" lon="5.78177">
        <ele>871.20001220703</ele>
        <time>2020-05-18T08:09:13Z</time>
      </trkpt>
      <trkpt lat="44.3872" lon="5.78173">
        <ele>873</ele>
        <time>2020-05-18T08:09:27Z</time>
      </trkpt>
      <trkpt lat="44.38711" lon="5.78167">
        <ele>876.20001220703</ele>
        <time>2020-05-18T08:09:49Z</time>
      </trkpt>
      <trkpt lat="44.38701" lon="5.78165">
        <ele>877.59997558594</ele>
        <time>2020-05-18T08:10:20Z</time>
      </trkpt>
      <trkpt lat="44.38696" lon="5.78163">
        <ele>880.79998779297</ele>
        <time>2020-05-18T08:10:41Z</time>
      </trkpt>
      <trkpt lat="44.38692" lon="5.78157">
        <ele>884</ele>
        <time>2020-05-18T08:11:00Z</time>
      </trkpt>
      <trkpt lat="44.38688" lon="5.78147">
        <ele>887</ele>
        <time>2020-05-18T08:11:20Z</time>
      </trkpt>
      <trkpt lat="44.38685" lon="5.78144">
        <ele>887.40002441406</ele>
        <time>2020-05-18T08:11:23Z</time>
      </trkpt>
      <trkpt lat="44.3868" lon="5.78136">
        <ele>888.59997558594</ele>
        <time>2020-05-18T08:11:42Z</time>
      </trkpt>
      <trkpt lat="44.38674" lon="5.78124">
        <ele>891.59997558594</ele>
        <time>2020-05-18T08:12:03Z</time>
      </trkpt>
      <trkpt lat="44.38675" lon="5.78109">
        <ele>894.79998779297</ele>
        <time>2020-05-18T08:12:23Z</time>
      </trkpt>
      <trkpt lat="44.38673" lon="5.78098">
        <ele>897.79998779297</ele>
        <time>2020-05-18T08:12:48Z</time>
      </trkpt>
      <trkpt lat="44.38673" lon="5.78078">
        <ele>900.40002441406</ele>
        <time>2020-05-18T08:13:14Z</time>
      </trkpt>
      <trkpt lat="44.38679" lon="5.78064">
        <ele>903.40002441406</ele>
        <time>2020-05-18T08:13:35Z</time>
      </trkpt>
      <trkpt lat="44.38684" lon="5.78057">
        <ele>905.20001220703</ele>
        <time>2020-05-18T08:13:49Z</time>
      </trkpt>
      <trkpt lat="44.38691" lon="5.78046">
        <ele>908.40002441406</ele>
        <time>2020-05-18T08:14:11Z</time>
      </trkpt>
      <trkpt lat="44.38699" lon="5.78047">
        <ele>911.40002441406</ele>
        <time>2020-05-18T08:14:31Z</time>
      </trkpt>
      <trkpt lat="44.38705" lon="5.78042">
        <ele>913.20001220703</ele>
        <time>2020-05-18T08:15:06Z</time>
      </trkpt>
      <trkpt lat="44.38707" lon="5.78032">
        <ele>916.40002441406</ele>
        <time>2020-05-18T08:15:27Z</time>
      </trkpt>
      <trkpt lat="44.38717" lon="5.78041">
        <ele>918.79998779297</ele>
        <time>2020-05-18T08:15:46Z</time>
      </trkpt>
      <trkpt lat="44.38727" lon="5.78046">
        <ele>921.79998779297</ele>
        <time>2020-05-18T08:16:06Z</time>
      </trkpt>
      <trkpt lat="44.38738" lon="5.78049">
        <ele>924.79998779297</ele>
        <time>2020-05-18T08:16:26Z</time>
      </trkpt>
      <trkpt lat="44.38739" lon="5.78037">
        <ele>927.79998779297</ele>
        <time>2020-05-18T08:16:50Z</time>
      </trkpt>
      <trkpt lat="44.38741" lon="5.78029">
        <ele>929.79998779297</ele>
        <time>2020-05-18T08:17:48Z</time>
      </trkpt>
      <trkpt lat="44.38745" lon="5.78022">
        <ele>933</ele>
        <time>2020-05-18T08:18:06Z</time>
      </trkpt>
      <trkpt lat="44.38745" lon="5.78007">
        <ele>936</ele>
        <time>2020-05-18T08:18:27Z</time>
      </trkpt>
      <trkpt lat="44.38747" lon="5.78">
        <ele>938</ele>
        <time>2020-05-18T08:19:02Z</time>
      </trkpt>
      <trkpt lat="44.38748" lon="5.77995">
        <ele>938.79998779297</ele>
        <time>2020-05-18T08:20:31Z</time>
      </trkpt>
      <trkpt lat="44.38746" lon="5.77983">
        <ele>941.40002441406</ele>
        <time>2020-05-18T08:21:52Z</time>
      </trkpt>
      <trkpt lat="44.38746" lon="5.7797">
        <ele>944.59997558594</ele>
        <time>2020-05-18T08:22:10Z</time>
      </trkpt>
      <trkpt lat="44.38748" lon="5.77954">
        <ele>947.59997558594</ele>
        <time>2020-05-18T08:22:27Z</time>
      </trkpt>
      <trkpt lat="44.38751" lon="5.77936">
        <ele>950.59997558594</ele>
        <time>2020-05-18T08:22:47Z</time>
      </trkpt>
      <trkpt lat="44.38752" lon="5.77922">
        <ele>953.59997558594</ele>
        <time>2020-05-18T08:23:03Z</time>
      </trkpt>
      <trkpt lat="44.38753" lon="5.7791">
        <ele>956.79998779297</ele>
        <time>2020-05-18T08:23:23Z</time>
      </trkpt>
      <trkpt lat="44.38759" lon="5.7792">
        <ele>959.20001220703</ele>
        <time>2020-05-18T08:24:07Z</time>
      </trkpt>
      <trkpt lat="44.38772" lon="5.77931">
        <ele>962.20001220703</ele>
        <time>2020-05-18T08:24:29Z</time>
      </trkpt>
      <trkpt lat="44.38787" lon="5.77944">
        <ele>965.20001220703</ele>
        <time>2020-05-18T08:24:50Z</time>
      </trkpt>
      <trkpt lat="44.38797" lon="5.7795">
        <ele>967.59997558594</ele>
        <time>2020-05-18T08:25:08Z</time>
      </trkpt>
      <trkpt lat="44.38806" lon="5.77951">
        <ele>970.59997558594</ele>
        <time>2020-05-18T08:25:25Z</time>
      </trkpt>
      <trkpt lat="44.38814" lon="5.7795">
        <ele>973.79998779297</ele>
        <time>2020-05-18T08:25:43Z</time>
      </trkpt>
      <trkpt lat="44.38824" lon="5.77951">
        <ele>977</ele>
        <time>2020-05-18T08:26:04Z</time>
      </trkpt>
      <trkpt lat="44.38833" lon="5.77955">
        <ele>980.20001220703</ele>
        <time>2020-05-18T08:26:23Z</time>
      </trkpt>
      <trkpt lat="44.38844" lon="5.77956">
        <ele>983.20001220703</ele>
        <time>2020-05-18T08:26:44Z</time>
      </trkpt>
      <trkpt lat="44.38853" lon="5.77956">
        <ele>986.40002441406</ele>
        <time>2020-05-18T08:27:02Z</time>
      </trkpt>
      <trkpt lat="44.38861" lon="5.7796">
        <ele>989.40002441406</ele>
        <time>2020-05-18T08:27:18Z</time>
      </trkpt>
      <trkpt lat="44.3887" lon="5.77971">
        <ele>992.59997558594</ele>
        <time>2020-05-18T08:27:40Z</time>
      </trkpt>
      <trkpt lat="44.38879" lon="5.77989">
        <ele>995.59997558594</ele>
        <time>2020-05-18T08:28:02Z</time>
      </trkpt>
      <trkpt lat="44.38888" lon="5.77998">
        <ele>997.59997558594</ele>
        <time>2020-05-18T08:28:20Z</time>
      </trkpt>
      <trkpt lat="44.38902" lon="5.78002">
        <ele>1001</ele>
        <time>2020-05-18T08:28:40Z</time>
      </trkpt>
      <trkpt lat="44.38921" lon="5.78001">
        <ele>1004</ele>
        <time>2020-05-18T08:29:04Z</time>
      </trkpt>
      <trkpt lat="44.38938" lon="5.78011">
        <ele>1006</ele>
        <time>2020-05-18T08:29:25Z</time>
      </trkpt>
      <trkpt lat="44.38954" lon="5.7802">
        <ele>1005</ele>
        <time>2020-05-18T08:29:45Z</time>
      </trkpt>
      <trkpt lat="44.38975" lon="5.7802">
        <ele>1007</ele>
        <time>2020-05-18T08:30:09Z</time>
      </trkpt>
      <trkpt lat="44.38995" lon="5.78023">
        <ele>1010</ele>
        <time>2020-05-18T08:30:33Z</time>
      </trkpt>
      <trkpt lat="44.39013" lon="5.78027">
        <ele>1012.200012207</ele>
        <time>2020-05-18T08:30:57Z</time>
      </trkpt>
      <trkpt lat="44.39042" lon="5.7802">
        <ele>1015.200012207</ele>
        <time>2020-05-18T08:31:27Z</time>
      </trkpt>
      <trkpt lat="44.39055" lon="5.78008">
        <ele>1018.4000244141</ele>
        <time>2020-05-18T08:31:47Z</time>
      </trkpt>
      <trkpt lat="44.3907" lon="5.78004">
        <ele>1019.4000244141</ele>
        <time>2020-05-18T08:32:10Z</time>
      </trkpt>
      <trkpt lat="44.39077" lon="5.78005">
        <ele>1020.200012207</ele>
        <time>2020-05-18T08:32:17Z</time>
      </trkpt>
      <trkpt lat="44.39093" lon="5.78013">
        <ele>1022.799987793</ele>
        <time>2020-05-18T08:33:06Z</time>
      </trkpt>
      <trkpt lat="44.39104" lon="5.78017">
        <ele>1026</ele>
        <time>2020-05-18T08:33:23Z</time>
      </trkpt>
      <trkpt lat="44.39112" lon="5.78015">
        <ele>1029</ele>
        <time>2020-05-18T08:33:39Z</time>
      </trkpt>
      <trkpt lat="44.39117" lon="5.78002">
        <ele>1032</ele>
        <time>2020-05-18T08:33:56Z</time>
      </trkpt>
      <trkpt lat="44.39125" lon="5.7799">
        <ele>1035</ele>
        <time>2020-05-18T08:34:14Z</time>
      </trkpt>
      <trkpt lat="44.39141" lon="5.77989">
        <ele>1038</ele>
        <time>2020-05-18T08:34:39Z</time>
      </trkpt>
      <trkpt lat="44.39164" lon="5.77992">
        <ele>1041.1999511719</ele>
        <time>2020-05-18T08:35:04Z</time>
      </trkpt>
      <trkpt lat="44.39184" lon="5.77994">
        <ele>1044.1999511719</ele>
        <time>2020-05-18T08:35:26Z</time>
      </trkpt>
      <trkpt lat="44.39201" lon="5.78005">
        <ele>1045.4000244141</ele>
        <time>2020-05-18T08:35:46Z</time>
      </trkpt>
      <trkpt lat="44.39211" lon="5.78014">
        <ele>1044</ele>
        <time>2020-05-18T08:36:06Z</time>
      </trkpt>
      <trkpt lat="44.39228" lon="5.7802">
        <ele>1044.4000244141</ele>
        <time>2020-05-18T08:37:02Z</time>
      </trkpt>
      <trkpt lat="44.39243" lon="5.78019">
        <ele>1043.4000244141</ele>
        <time>2020-05-18T08:37:25Z</time>
      </trkpt>
      <trkpt lat="44.39267" lon="5.78018">
        <ele>1041.4000244141</ele>
        <time>2020-05-18T08:37:48Z</time>
      </trkpt>
      <trkpt lat="44.39287" lon="5.78031">
        <ele>1040</ele>
        <time>2020-05-18T08:38:09Z</time>
      </trkpt>
      <trkpt lat="44.39288" lon="5.78058">
        <ele>1038.8000488281</ele>
        <time>2020-05-18T08:38:28Z</time>
      </trkpt>
      <trkpt lat="44.39289" lon="5.78085">
        <ele>1039.1999511719</ele>
        <time>2020-05-18T08:38:49Z</time>
      </trkpt>
      <trkpt lat="44.39288" lon="5.78088">
        <ele>1039.4000244141</ele>
        <time>2020-05-18T08:38:51Z</time>
      </trkpt>
      <trkpt lat="44.39281" lon="5.78105">
        <ele>1038.8000488281</ele>
        <time>2020-05-18T08:39:04Z</time>
      </trkpt>
      <trkpt lat="44.3928" lon="5.78125">
        <ele>1037.1999511719</ele>
        <time>2020-05-18T08:39:18Z</time>
      </trkpt>
      <trkpt lat="44.39278" lon="5.78155">
        <ele>1037.4000244141</ele>
        <time>2020-05-18T08:39:40Z</time>
      </trkpt>
      <trkpt lat="44.39271" lon="5.78188">
        <ele>1039</ele>
        <time>2020-05-18T08:40:05Z</time>
      </trkpt>
      <trkpt lat="44.39265" lon="5.78221">
        <ele>1038.5999755859</ele>
        <time>2020-05-18T08:40:28Z</time>
      </trkpt>
      <trkpt lat="44.39267" lon="5.78244">
        <ele>1038.8000488281</ele>
        <time>2020-05-18T08:40:49Z</time>
      </trkpt>
      <trkpt lat="44.3928" lon="5.78266">
        <ele>1040.5999755859</ele>
        <time>2020-05-18T08:41:14Z</time>
      </trkpt>
      <trkpt lat="44.39295" lon="5.78295">
        <ele>1043.1999511719</ele>
        <time>2020-05-18T08:41:41Z</time>
      </trkpt>
      <trkpt lat="44.39307" lon="5.78321">
        <ele>1043.4000244141</ele>
        <time>2020-05-18T08:42:04Z</time>
      </trkpt>
      <trkpt lat="44.39321" lon="5.78334">
        <ele>1043.4000244141</ele>
        <time>2020-05-18T08:42:21Z</time>
      </trkpt>
      <trkpt lat="44.39336" lon="5.78364">
        <ele>1044.1999511719</ele>
        <time>2020-05-18T08:42:48Z</time>
      </trkpt>
      <trkpt lat="44.39349" lon="5.78388">
        <ele>1047.1999511719</ele>
        <time>2020-05-18T08:43:10Z</time>
      </trkpt>
      <trkpt lat="44.39359" lon="5.78402">
        <ele>1050.1999511719</ele>
        <time>2020-05-18T08:43:35Z</time>
      </trkpt>
      <trkpt lat="44.39366" lon="5.78375">
        <ele>1052.1999511719</ele>
        <time>2020-05-18T08:44:05Z</time>
      </trkpt>
      <trkpt lat="44.39373" lon="5.78352">
        <ele>1054.1999511719</ele>
        <time>2020-05-18T08:44:30Z</time>
      </trkpt>
      <trkpt lat="44.39378" lon="5.78324">
        <ele>1057.1999511719</ele>
        <time>2020-05-18T08:44:54Z</time>
      </trkpt>
      <trkpt lat="44.39378" lon="5.78322">
        <ele>1057.5999755859</ele>
        <time>2020-05-18T08:44:57Z</time>
      </trkpt>
      <trkpt lat="44.39382" lon="5.78302">
        <ele>1060.8000488281</ele>
        <time>2020-05-18T08:45:24Z</time>
      </trkpt>
      <trkpt lat="44.39381" lon="5.783">
        <ele>1061.1999511719</ele>
        <time>2020-05-18T08:45:26Z</time>
      </trkpt>
      <trkpt lat="44.39374" lon="5.78294">
        <ele>1062</ele>
        <time>2020-05-18T08:45:35Z</time>
      </trkpt>
      <trkpt lat="44.39373" lon="5.7829">
        <ele>1062.4000244141</ele>
        <time>2020-05-18T08:45:38Z</time>
      </trkpt>
      <trkpt lat="44.39359" lon="5.78262">
        <ele>1064.5999755859</ele>
        <time>2020-05-18T08:46:08Z</time>
      </trkpt>
      <trkpt lat="44.39345" lon="5.78241">
        <ele>1066.8000488281</ele>
        <time>2020-05-18T08:46:35Z</time>
      </trkpt>
      <trkpt lat="44.39347" lon="5.78215">
        <ele>1070</ele>
        <time>2020-05-18T08:47:02Z</time>
      </trkpt>
      <trkpt lat="44.39345" lon="5.78212">
        <ele>1071</ele>
        <time>2020-05-18T08:47:07Z</time>
      </trkpt>
      <trkpt lat="44.39346" lon="5.78181">
        <ele>1072.4000244141</ele>
        <time>2020-05-18T08:47:32Z</time>
      </trkpt>
      <trkpt lat="44.3935" lon="5.78144">
        <ele>1072</ele>
        <time>2020-05-18T08:47:57Z</time>
      </trkpt>
      <trkpt lat="44.39355" lon="5.78101">
        <ele>1074</ele>
        <time>2020-05-18T08:48:24Z</time>
      </trkpt>
      <trkpt lat="44.39367" lon="5.78076">
        <ele>1074.4000244141</ele>
        <time>2020-05-18T08:48:48Z</time>
      </trkpt>
      <trkpt lat="44.39364" lon="5.7805">
        <ele>1075.1999511719</ele>
        <time>2020-05-18T08:49:10Z</time>
      </trkpt>
      <trkpt lat="44.39364" lon="5.78022">
        <ele>1077.1999511719</ele>
        <time>2020-05-18T08:49:36Z</time>
      </trkpt>
      <trkpt lat="44.39366" lon="5.77982">
        <ele>1078.5999755859</ele>
        <time>2020-05-18T08:50:06Z</time>
      </trkpt>
      <trkpt lat="44.39371" lon="5.77953">
        <ele>1081.8000488281</ele>
        <time>2020-05-18T08:50:32Z</time>
      </trkpt>
      <trkpt lat="44.39373" lon="5.77932">
        <ele>1084.8000488281</ele>
        <time>2020-05-18T08:50:56Z</time>
      </trkpt>
      <trkpt lat="44.39369" lon="5.7791">
        <ele>1087.4000244141</ele>
        <time>2020-05-18T08:51:23Z</time>
      </trkpt>
      <trkpt lat="44.39362" lon="5.77893">
        <ele>1089</ele>
        <time>2020-05-18T08:51:42Z</time>
      </trkpt>
      <trkpt lat="44.39354" lon="5.77883">
        <ele>1091.8000488281</ele>
        <time>2020-05-18T08:52:12Z</time>
      </trkpt>
      <trkpt lat="44.39347" lon="5.77869">
        <ele>1092.8000488281</ele>
        <time>2020-05-18T08:52:46Z</time>
      </trkpt>
      <trkpt lat="44.39344" lon="5.77857">
        <ele>1095.8000488281</ele>
        <time>2020-05-18T08:53:04Z</time>
      </trkpt>
      <trkpt lat="44.3934" lon="5.77845">
        <ele>1098.8000488281</ele>
        <time>2020-05-18T08:53:24Z</time>
      </trkpt>
      <trkpt lat="44.39337" lon="5.77833">
        <ele>1101.8000488281</ele>
        <time>2020-05-18T08:53:44Z</time>
      </trkpt>
      <trkpt lat="44.39335" lon="5.77819">
        <ele>1103.8000488281</ele>
        <time>2020-05-18T08:54:02Z</time>
      </trkpt>
      <trkpt lat="44.39331" lon="5.77803">
        <ele>1106.8000488281</ele>
        <time>2020-05-18T08:54:23Z</time>
      </trkpt>
      <trkpt lat="44.39328" lon="5.7779">
        <ele>1108.8000488281</ele>
        <time>2020-05-18T08:54:40Z</time>
      </trkpt>
      <trkpt lat="44.3932" lon="5.77771">
        <ele>1112</ele>
        <time>2020-05-18T08:55:02Z</time>
      </trkpt>
      <trkpt lat="44.39306" lon="5.77755">
        <ele>1114.5999755859</ele>
        <time>2020-05-18T08:55:27Z</time>
      </trkpt>
      <trkpt lat="44.39299" lon="5.77739">
        <ele>1116</ele>
        <time>2020-05-18T08:55:51Z</time>
      </trkpt>
      <trkpt lat="44.39286" lon="5.77721">
        <ele>1119</ele>
        <time>2020-05-18T08:56:18Z</time>
      </trkpt>
      <trkpt lat="44.39278" lon="5.77701">
        <ele>1122.1999511719</ele>
        <time>2020-05-18T08:56:41Z</time>
      </trkpt>
      <trkpt lat="44.39274" lon="5.7768">
        <ele>1125</ele>
        <time>2020-05-18T08:57:11Z</time>
      </trkpt>
      <trkpt lat="44.39273" lon="5.77664">
        <ele>1126.5999755859</ele>
        <time>2020-05-18T08:57:34Z</time>
      </trkpt>
      <trkpt lat="44.39269" lon="5.77648">
        <ele>1129.5999755859</ele>
        <time>2020-05-18T08:57:54Z</time>
      </trkpt>
      <trkpt lat="44.39264" lon="5.77631">
        <ele>1132.5999755859</ele>
        <time>2020-05-18T08:58:16Z</time>
      </trkpt>
      <trkpt lat="44.3926" lon="5.77617">
        <ele>1134.8000488281</ele>
        <time>2020-05-18T08:58:40Z</time>
      </trkpt>
      <trkpt lat="44.39256" lon="5.77598">
        <ele>1138</ele>
        <time>2020-05-18T08:59:06Z</time>
      </trkpt>
      <trkpt lat="44.39252" lon="5.77579">
        <ele>1141</ele>
        <time>2020-05-18T08:59:31Z</time>
      </trkpt>
      <trkpt lat="44.39241" lon="5.77562">
        <ele>1143.8000488281</ele>
        <time>2020-05-18T09:00:01Z</time>
      </trkpt>
      <trkpt lat="44.39226" lon="5.77543">
        <ele>1145</ele>
        <time>2020-05-18T09:00:27Z</time>
      </trkpt>
      <trkpt lat="44.39223" lon="5.7754">
        <ele>1145.1999511719</ele>
        <time>2020-05-18T09:00:32Z</time>
      </trkpt>
      <trkpt lat="44.39211" lon="5.77527">
        <ele>1147.4000244141</ele>
        <time>2020-05-18T09:00:58Z</time>
      </trkpt>
      <trkpt lat="44.39203" lon="5.77508">
        <ele>1150.4000244141</ele>
        <time>2020-05-18T09:01:19Z</time>
      </trkpt>
      <trkpt lat="44.39198" lon="5.77493">
        <ele>1153.4000244141</ele>
        <time>2020-05-18T09:01:40Z</time>
      </trkpt>
      <trkpt lat="44.39193" lon="5.77472">
        <ele>1155</ele>
        <time>2020-05-18T09:02:15Z</time>
      </trkpt>
      <trkpt lat="44.39187" lon="5.77451">
        <ele>1158</ele>
        <time>2020-05-18T09:02:38Z</time>
      </trkpt>
      <trkpt lat="44.39177" lon="5.7743">
        <ele>1159.5999755859</ele>
        <time>2020-05-18T09:03:08Z</time>
      </trkpt>
      <trkpt lat="44.39161" lon="5.77411">
        <ele>1159</ele>
        <time>2020-05-18T09:03:33Z</time>
      </trkpt>
      <trkpt lat="44.39147" lon="5.77395">
        <ele>1160.4000244141</ele>
        <time>2020-05-18T09:03:57Z</time>
      </trkpt>
      <trkpt lat="44.39137" lon="5.77391">
        <ele>1162.5999755859</ele>
        <time>2020-05-18T09:04:18Z</time>
      </trkpt>
      <trkpt lat="44.3912" lon="5.7738">
        <ele>1163.1999511719</ele>
        <time>2020-05-18T09:04:42Z</time>
      </trkpt>
      <trkpt lat="44.39101" lon="5.77366">
        <ele>1164.8000488281</ele>
        <time>2020-05-18T09:05:03Z</time>
      </trkpt>
      <trkpt lat="44.39081" lon="5.77359">
        <ele>1167</ele>
        <time>2020-05-18T09:05:28Z</time>
      </trkpt>
      <trkpt lat="44.39065" lon="5.77353">
        <ele>1168.1999511719</ele>
        <time>2020-05-18T09:05:52Z</time>
      </trkpt>
      <trkpt lat="44.39055" lon="5.77341">
        <ele>1171</ele>
        <time>2020-05-18T09:06:20Z</time>
      </trkpt>
      <trkpt lat="44.39046" lon="5.77332">
        <ele>1173.8000488281</ele>
        <time>2020-05-18T09:06:41Z</time>
      </trkpt>
      <trkpt lat="44.39044" lon="5.77329">
        <ele>1174.5999755859</ele>
        <time>2020-05-18T09:07:21Z</time>
      </trkpt>
      <trkpt lat="44.39045" lon="5.77331">
        <ele>1174.1999511719</ele>
        <time>2020-05-18T09:08:29Z</time>
      </trkpt>
      <trkpt lat="44.39043" lon="5.77325">
        <ele>1175.1999511719</ele>
        <time>2020-05-18T09:09:14Z</time>
      </trkpt>
      <trkpt lat="44.39038" lon="5.77314">
        <ele>1178.4000244141</ele>
        <time>2020-05-18T09:09:35Z</time>
      </trkpt>
      <trkpt lat="44.39035" lon="5.77308">
        <ele>1180.1999511719</ele>
        <time>2020-05-18T09:09:59Z</time>
      </trkpt>
      <trkpt lat="44.39031" lon="5.77301">
        <ele>1182.5999755859</ele>
        <time>2020-05-18T09:10:21Z</time>
      </trkpt>
      <trkpt lat="44.39028" lon="5.7729">
        <ele>1184.5999755859</ele>
        <time>2020-05-18T09:10:46Z</time>
      </trkpt>
      <trkpt lat="44.39026" lon="5.77285">
        <ele>1186.5999755859</ele>
        <time>2020-05-18T09:11:20Z</time>
      </trkpt>
      <trkpt lat="44.39021" lon="5.77274">
        <ele>1188</ele>
        <time>2020-05-18T09:12:05Z</time>
      </trkpt>
      <trkpt lat="44.39012" lon="5.77258">
        <ele>1191</ele>
        <time>2020-05-18T09:12:26Z</time>
      </trkpt>
      <trkpt lat="44.39008" lon="5.77251">
        <ele>1192.5999755859</ele>
        <time>2020-05-18T09:12:46Z</time>
      </trkpt>
      <trkpt lat="44.39005" lon="5.77236">
        <ele>1193.4000244141</ele>
        <time>2020-05-18T09:13:06Z</time>
      </trkpt>
      <trkpt lat="44.39008" lon="5.77221">
        <ele>1196.5999755859</ele>
        <time>2020-05-18T09:13:24Z</time>
      </trkpt>
      <trkpt lat="44.39013" lon="5.77206">
        <ele>1199.4000244141</ele>
        <time>2020-05-18T09:13:45Z</time>
      </trkpt>
      <trkpt lat="44.39013" lon="5.77198">
        <ele>1201</ele>
        <time>2020-05-18T09:14:19Z</time>
      </trkpt>
      <trkpt lat="44.39005" lon="5.77193">
        <ele>1200.8000488281</ele>
        <time>2020-05-18T09:14:34Z</time>
      </trkpt>
      <trkpt lat="44.38991" lon="5.77185">
        <ele>1201</ele>
        <time>2020-05-18T09:14:52Z</time>
      </trkpt>
      <trkpt lat="44.38988" lon="5.77182">
        <ele>1201.4000244141</ele>
        <time>2020-05-18T09:15:14Z</time>
      </trkpt>
      <trkpt lat="44.38988" lon="5.77184">
        <ele>1201.1999511719</ele>
        <time>2020-05-18T09:15:47Z</time>
      </trkpt>
      <trkpt lat="44.38988" lon="5.77186">
        <ele>1202.5999755859</ele>
        <time>2020-05-18T09:17:39Z</time>
      </trkpt>
      <trkpt lat="44.38994" lon="5.77191">
        <ele>1203</ele>
        <time>2020-05-18T09:18:27Z</time>
      </trkpt>
      <trkpt lat="44.39002" lon="5.77199">
        <ele>1202.5999755859</ele>
        <time>2020-05-18T09:18:50Z</time>
      </trkpt>
      <trkpt lat="44.39013" lon="5.77206">
        <ele>1203</ele>
        <time>2020-05-18T09:19:07Z</time>
      </trkpt>
      <trkpt lat="44.39026" lon="5.7721">
        <ele>1204.4000244141</ele>
        <time>2020-05-18T09:19:28Z</time>
      </trkpt>
      <trkpt lat="44.39036" lon="5.77212">
        <ele>1207.4000244141</ele>
        <time>2020-05-18T09:19:49Z</time>
      </trkpt>
      <trkpt lat="44.39047" lon="5.77211">
        <ele>1209.5999755859</ele>
        <time>2020-05-18T09:20:07Z</time>
      </trkpt>
      <trkpt lat="44.39059" lon="5.77214">
        <ele>1211.8000488281</ele>
        <time>2020-05-18T09:20:23Z</time>
      </trkpt>
      <trkpt lat="44.3907" lon="5.77219">
        <ele>1213.4000244141</ele>
        <time>2020-05-18T09:20:40Z</time>
      </trkpt>
      <trkpt lat="44.39078" lon="5.77223">
        <ele>1213.8000488281</ele>
        <time>2020-05-18T09:20:59Z</time>
      </trkpt>
      <trkpt lat="44.39089" lon="5.77232">
        <ele>1214.4000244141</ele>
        <time>2020-05-18T09:21:14Z</time>
      </trkpt>
      <trkpt lat="44.39099" lon="5.77242">
        <ele>1215.1999511719</ele>
        <time>2020-05-18T09:21:27Z</time>
      </trkpt>
      <trkpt lat="44.39106" lon="5.77247">
        <ele>1215.5999755859</ele>
        <time>2020-05-18T09:21:36Z</time>
      </trkpt>
      <trkpt lat="44.39117" lon="5.77253">
        <ele>1215.1999511719</ele>
        <time>2020-05-18T09:21:49Z</time>
      </trkpt>
      <trkpt lat="44.39128" lon="5.77255">
        <ele>1214.1999511719</ele>
        <time>2020-05-18T09:22:02Z</time>
      </trkpt>
      <trkpt lat="44.39135" lon="5.77257">
        <ele>1214</ele>
        <time>2020-05-18T09:22:10Z</time>
      </trkpt>
      <trkpt lat="44.39146" lon="5.7727">
        <ele>1213.5999755859</ele>
        <time>2020-05-18T09:22:26Z</time>
      </trkpt>
      <trkpt lat="44.39156" lon="5.77273">
        <ele>1213.8000488281</ele>
        <time>2020-05-18T09:22:43Z</time>
      </trkpt>
      <trkpt lat="44.39167" lon="5.77274">
        <ele>1215.8000488281</ele>
        <time>2020-05-18T09:22:59Z</time>
      </trkpt>
      <trkpt lat="44.3918" lon="5.77277">
        <ele>1218.8000488281</ele>
        <time>2020-05-18T09:23:18Z</time>
      </trkpt>
      <trkpt lat="44.39183" lon="5.77278">
        <ele>1219</ele>
        <time>2020-05-18T09:23:21Z</time>
      </trkpt>
      <trkpt lat="44.39196" lon="5.77284">
        <ele>1219.4000244141</ele>
        <time>2020-05-18T09:23:37Z</time>
      </trkpt>
      <trkpt lat="44.39206" lon="5.77292">
        <ele>1220.1999511719</ele>
        <time>2020-05-18T09:23:53Z</time>
      </trkpt>
      <trkpt lat="44.39211" lon="5.77297">
        <ele>1220.4000244141</ele>
        <time>2020-05-18T09:24:08Z</time>
      </trkpt>
      <trkpt lat="44.39219" lon="5.77306">
        <ele>1219.5999755859</ele>
        <time>2020-05-18T09:24:24Z</time>
      </trkpt>
      <trkpt lat="44.39226" lon="5.77312">
        <ele>1218.4000244141</ele>
        <time>2020-05-18T09:24:44Z</time>
      </trkpt>
      <trkpt lat="44.3923" lon="5.77317">
        <ele>1218</ele>
        <time>2020-05-18T09:25:07Z</time>
      </trkpt>
      <trkpt lat="44.39238" lon="5.77325">
        <ele>1217.5999755859</ele>
        <time>2020-05-18T09:25:31Z</time>
      </trkpt>
      <trkpt lat="44.39244" lon="5.7733">
        <ele>1217.5999755859</ele>
        <time>2020-05-18T09:25:48Z</time>
      </trkpt>
      <trkpt lat="44.39247" lon="5.77335">
        <ele>1216.8000488281</ele>
        <time>2020-05-18T09:26:08Z</time>
      </trkpt>
      <trkpt lat="44.39252" lon="5.77341">
        <ele>1215.8000488281</ele>
        <time>2020-05-18T09:26:29Z</time>
      </trkpt>
      <trkpt lat="44.39259" lon="5.77342">
        <ele>1216.5999755859</ele>
        <time>2020-05-18T09:26:53Z</time>
      </trkpt>
      <trkpt lat="44.39265" lon="5.77344">
        <ele>1218</ele>
        <time>2020-05-18T09:27:13Z</time>
      </trkpt>
      <trkpt lat="44.3927" lon="5.77354">
        <ele>1217</ele>
        <time>2020-05-18T09:27:35Z</time>
      </trkpt>
      <trkpt lat="44.39274" lon="5.77361">
        <ele>1215.8000488281</ele>
        <time>2020-05-18T09:27:52Z</time>
      </trkpt>
      <trkpt lat="44.39278" lon="5.77367">
        <ele>1213.4000244141</ele>
        <time>2020-05-18T09:28:25Z</time>
      </trkpt>
      <trkpt lat="44.39286" lon="5.77373">
        <ele>1214</ele>
        <time>2020-05-18T09:28:50Z</time>
      </trkpt>
      <trkpt lat="44.39292" lon="5.77381">
        <ele>1213.4000244141</ele>
        <time>2020-05-18T09:29:05Z</time>
      </trkpt>
      <trkpt lat="44.39293" lon="5.77391">
        <ele>1211.5999755859</ele>
        <time>2020-05-18T09:29:27Z</time>
      </trkpt>
      <trkpt lat="44.393" lon="5.77403">
        <ele>1210.4000244141</ele>
        <time>2020-05-18T09:29:45Z</time>
      </trkpt>
      <trkpt lat="44.39311" lon="5.77417">
        <ele>1208.1999511719</ele>
        <time>2020-05-18T09:30:05Z</time>
      </trkpt>
      <trkpt lat="44.39328" lon="5.77438">
        <ele>1209.5999755859</ele>
        <time>2020-05-18T09:30:31Z</time>
      </trkpt>
      <trkpt lat="44.39343" lon="5.77453">
        <ele>1210.4000244141</ele>
        <time>2020-05-18T09:30:56Z</time>
      </trkpt>
      <trkpt lat="44.39362" lon="5.77466">
        <ele>1212.5999755859</ele>
        <time>2020-05-18T09:31:23Z</time>
      </trkpt>
      <trkpt lat="44.3938" lon="5.77476">
        <ele>1215.8000488281</ele>
        <time>2020-05-18T09:31:50Z</time>
      </trkpt>
      <trkpt lat="44.39396" lon="5.77484">
        <ele>1218.1999511719</ele>
        <time>2020-05-18T09:32:12Z</time>
      </trkpt>
      <trkpt lat="44.39412" lon="5.77499">
        <ele>1218.5999755859</ele>
        <time>2020-05-18T09:32:39Z</time>
      </trkpt>
      <trkpt lat="44.39422" lon="5.77512">
        <ele>1218</ele>
        <time>2020-05-18T09:33:01Z</time>
      </trkpt>
      <trkpt lat="44.39437" lon="5.77533">
        <ele>1216.8000488281</ele>
        <time>2020-05-18T09:33:30Z</time>
      </trkpt>
      <trkpt lat="44.39446" lon="5.77552">
        <ele>1219.4000244141</ele>
        <time>2020-05-18T09:33:52Z</time>
      </trkpt>
      <trkpt lat="44.39452" lon="5.77559">
        <ele>1220.8000488281</ele>
        <time>2020-05-18T09:34:09Z</time>
      </trkpt>
      <trkpt lat="44.39459" lon="5.77563">
        <ele>1224</ele>
        <time>2020-05-18T09:34:33Z</time>
      </trkpt>
      <trkpt lat="44.39463" lon="5.77568">
        <ele>1225.1999511719</ele>
        <time>2020-05-18T09:34:56Z</time>
      </trkpt>
      <trkpt lat="44.39468" lon="5.77575">
        <ele>1226.8000488281</ele>
        <time>2020-05-18T09:35:19Z</time>
      </trkpt>
      <trkpt lat="44.39473" lon="5.77582">
        <ele>1229.4000244141</ele>
        <time>2020-05-18T09:35:59Z</time>
      </trkpt>
      <trkpt lat="44.3948" lon="5.77589">
        <ele>1232.4000244141</ele>
        <time>2020-05-18T09:36:21Z</time>
      </trkpt>
      <trkpt lat="44.39487" lon="5.77595">
        <ele>1235.4000244141</ele>
        <time>2020-05-18T09:36:41Z</time>
      </trkpt>
      <trkpt lat="44.39492" lon="5.77606">
        <ele>1236.5999755859</ele>
        <time>2020-05-18T09:37:12Z</time>
      </trkpt>
      <trkpt lat="44.39502" lon="5.77613">
        <ele>1239.8000488281</ele>
        <time>2020-05-18T09:37:31Z</time>
      </trkpt>
      <trkpt lat="44.39516" lon="5.77625">
        <ele>1242.8000488281</ele>
        <time>2020-05-18T09:37:51Z</time>
      </trkpt>
      <trkpt lat="44.39518" lon="5.77626">
        <ele>1243</ele>
        <time>2020-05-18T09:37:53Z</time>
      </trkpt>
      <trkpt lat="44.39528" lon="5.77635">
        <ele>1244.5999755859</ele>
        <time>2020-05-18T09:38:10Z</time>
      </trkpt>
      <trkpt lat="44.3954" lon="5.77646">
        <ele>1245.4000244141</ele>
        <time>2020-05-18T09:38:29Z</time>
      </trkpt>
      <trkpt lat="44.39552" lon="5.7766">
        <ele>1245.5999755859</ele>
        <time>2020-05-18T09:38:53Z</time>
      </trkpt>
      <trkpt lat="44.39567" lon="5.77672">
        <ele>1246.4000244141</ele>
        <time>2020-05-18T09:39:16Z</time>
      </trkpt>
      <trkpt lat="44.3958" lon="5.77683">
        <ele>1248.8000488281</ele>
        <time>2020-05-18T09:39:37Z</time>
      </trkpt>
      <trkpt lat="44.39593" lon="5.77695">
        <ele>1251.8000488281</ele>
        <time>2020-05-18T09:40:04Z</time>
      </trkpt>
      <trkpt lat="44.39608" lon="5.77717">
        <ele>1254.5999755859</ele>
        <time>2020-05-18T09:40:31Z</time>
      </trkpt>
      <trkpt lat="44.3962" lon="5.77733">
        <ele>1257.5999755859</ele>
        <time>2020-05-18T09:40:56Z</time>
      </trkpt>
      <trkpt lat="44.39632" lon="5.77753">
        <ele>1260</ele>
        <time>2020-05-18T09:41:20Z</time>
      </trkpt>
      <trkpt lat="44.39643" lon="5.77766">
        <ele>1263.1999511719</ele>
        <time>2020-05-18T09:41:40Z</time>
      </trkpt>
      <trkpt lat="44.39654" lon="5.77767">
        <ele>1266.1999511719</ele>
        <time>2020-05-18T09:42:02Z</time>
      </trkpt>
      <trkpt lat="44.39662" lon="5.77768">
        <ele>1269.1999511719</ele>
        <time>2020-05-18T09:42:24Z</time>
      </trkpt>
      <trkpt lat="44.39673" lon="5.77771">
        <ele>1271</ele>
        <time>2020-05-18T09:42:48Z</time>
      </trkpt>
      <trkpt lat="44.39685" lon="5.77772">
        <ele>1273.8000488281</ele>
        <time>2020-05-18T09:43:09Z</time>
      </trkpt>
      <trkpt lat="44.39697" lon="5.77775">
        <ele>1275.8000488281</ele>
        <time>2020-05-18T09:43:26Z</time>
      </trkpt>
      <trkpt lat="44.3971" lon="5.77777">
        <ele>1277.5999755859</ele>
        <time>2020-05-18T09:43:47Z</time>
      </trkpt>
      <trkpt lat="44.39721" lon="5.77784">
        <ele>1279.4000244141</ele>
        <time>2020-05-18T09:44:04Z</time>
      </trkpt>
      <trkpt lat="44.39733" lon="5.77791">
        <ele>1280.8000488281</ele>
        <time>2020-05-18T09:44:26Z</time>
      </trkpt>
      <trkpt lat="44.39745" lon="5.77802">
        <ele>1282</ele>
        <time>2020-05-18T09:44:49Z</time>
      </trkpt>
      <trkpt lat="44.39759" lon="5.77815">
        <ele>1283.5999755859</ele>
        <time>2020-05-18T09:45:11Z</time>
      </trkpt>
      <trkpt lat="44.3977" lon="5.77833">
        <ele>1284.5999755859</ele>
        <time>2020-05-18T09:45:37Z</time>
      </trkpt>
      <trkpt lat="44.39782" lon="5.77854">
        <ele>1285</ele>
        <time>2020-05-18T09:46:06Z</time>
      </trkpt>
      <trkpt lat="44.39788" lon="5.77877">
        <ele>1284.4000244141</ele>
        <time>2020-05-18T09:46:23Z</time>
      </trkpt>
      <trkpt lat="44.39797" lon="5.77895">
        <ele>1282.5999755859</ele>
        <time>2020-05-18T09:46:39Z</time>
      </trkpt>
      <trkpt lat="44.39806" lon="5.77909">
        <ele>1282.4000244141</ele>
        <time>2020-05-18T09:46:57Z</time>
      </trkpt>
      <trkpt lat="44.39815" lon="5.77912">
        <ele>1283.5999755859</ele>
        <time>2020-05-18T09:47:15Z</time>
      </trkpt>
      <trkpt lat="44.39822" lon="5.77912">
        <ele>1286</ele>
        <time>2020-05-18T09:47:31Z</time>
      </trkpt>
      <trkpt lat="44.39826" lon="5.77914">
        <ele>1287.5999755859</ele>
        <time>2020-05-18T09:47:45Z</time>
      </trkpt>
      <trkpt lat="44.39825" lon="5.77914">
        <ele>1288.4000244141</ele>
        <time>2020-05-18T09:48:50Z</time>
      </trkpt>
      <trkpt lat="44.39831" lon="5.77919">
        <ele>1288.5999755859</ele>
        <time>2020-05-18T09:49:27Z</time>
      </trkpt>
      <trkpt lat="44.39839" lon="5.77923">
        <ele>1290.1999511719</ele>
        <time>2020-05-18T09:49:44Z</time>
      </trkpt>
      <trkpt lat="44.39851" lon="5.77934">
        <ele>1290.8000488281</ele>
        <time>2020-05-18T09:50:01Z</time>
      </trkpt>
      <trkpt lat="44.39853" lon="5.77936">
        <ele>1290.8000488281</ele>
        <time>2020-05-18T09:50:04Z</time>
      </trkpt>
      <trkpt lat="44.39863" lon="5.77951">
        <ele>1290.5999755859</ele>
        <time>2020-05-18T09:50:21Z</time>
      </trkpt>
      <trkpt lat="44.39873" lon="5.77963">
        <ele>1290</ele>
        <time>2020-05-18T09:50:35Z</time>
      </trkpt>
      <trkpt lat="44.39883" lon="5.77968">
        <ele>1290.4000244141</ele>
        <time>2020-05-18T09:50:50Z</time>
      </trkpt>
      <trkpt lat="44.3989" lon="5.77974">
        <ele>1291.8000488281</ele>
        <time>2020-05-18T09:51:12Z</time>
      </trkpt>
      <trkpt lat="44.39891" lon="5.77974">
        <ele>1292.4000244141</ele>
        <time>2020-05-18T09:51:31Z</time>
      </trkpt>
      <trkpt lat="44.3989" lon="5.77977">
        <ele>1292</ele>
        <time>2020-05-18T09:52:51Z</time>
      </trkpt>
      <trkpt lat="44.3989" lon="5.77978">
        <ele>1291.5999755859</ele>
        <time>2020-05-18T09:53:23Z</time>
      </trkpt>
      <trkpt lat="44.39891" lon="5.77977">
        <ele>1292</ele>
        <time>2020-05-18T09:54:37Z</time>
      </trkpt>
      <trkpt lat="44.39891" lon="5.77976">
        <ele>1292</ele>
        <time>2020-05-18T09:56:20Z</time>
      </trkpt>
      <trkpt lat="44.39891" lon="5.77977">
        <ele>1292.4000244141</ele>
        <time>2020-05-18T09:57:57Z</time>
      </trkpt>
      <trkpt lat="44.39891" lon="5.77978">
        <ele>1292.8000488281</ele>
        <time>2020-05-18T09:59:44Z</time>
      </trkpt>
      <trkpt lat="44.39891" lon="5.77978">
        <ele>1292.8000488281</ele>
        <time>2020-05-18T10:00:41Z</time>
      </trkpt>
      <trkpt lat="44.39891" lon="5.77977">
        <ele>1293.8000488281</ele>
        <time>2020-05-18T10:05:21Z</time>
      </trkpt>
      <trkpt lat="44.3989" lon="5.77978">
        <ele>1294.1999511719</ele>
        <time>2020-05-18T10:07:31Z</time>
      </trkpt>
      <trkpt lat="44.39892" lon="5.77979">
        <ele>1294.4000244141</ele>
        <time>2020-05-18T10:08:55Z</time>
      </trkpt>
      <trkpt lat="44.39893" lon="5.77979">
        <ele>1294.4000244141</ele>
        <time>2020-05-18T10:10:28Z</time>
      </trkpt>
      <trkpt lat="44.39893" lon="5.77977">
        <ele>1295</ele>
        <time>2020-05-18T10:11:48Z</time>
      </trkpt>
      <trkpt lat="44.39891" lon="5.77977">
        <ele>1295</ele>
        <time>2020-05-18T10:13:30Z</time>
      </trkpt>
      <trkpt lat="44.39892" lon="5.77976">
        <ele>1295.4000244141</ele>
        <time>2020-05-18T10:15:25Z</time>
      </trkpt>
      <trkpt lat="44.39892" lon="5.77976">
        <ele>1295.5999755859</ele>
        <time>2020-05-18T10:16:59Z</time>
      </trkpt>
      <trkpt lat="44.39892" lon="5.77977">
        <ele>1295.5999755859</ele>
        <time>2020-05-18T10:19:30Z</time>
      </trkpt>
      <trkpt lat="44.39892" lon="5.77977">
        <ele>1295.5999755859</ele>
        <time>2020-05-18T10:21:39Z</time>
      </trkpt>
      <trkpt lat="44.39893" lon="5.77977">
        <ele>1296.1999511719</ele>
        <time>2020-05-18T10:24:24Z</time>
      </trkpt>
      <trkpt lat="44.39892" lon="5.77977">
        <ele>1295.4000244141</ele>
        <time>2020-05-18T10:26:18Z</time>
      </trkpt>
      <trkpt lat="44.39892" lon="5.77977">
        <ele>1295.4000244141</ele>
        <time>2020-05-18T10:28:11Z</time>
      </trkpt>
      <trkpt lat="44.39892" lon="5.77978">
        <ele>1296</ele>
        <time>2020-05-18T10:31:34Z</time>
      </trkpt>
      <trkpt lat="44.39893" lon="5.77977">
        <ele>1295.1999511719</ele>
        <time>2020-05-18T10:33:26Z</time>
      </trkpt>
      <trkpt lat="44.39892" lon="5.77977">
        <ele>1295.1999511719</ele>
        <time>2020-05-18T10:38:57Z</time>
      </trkpt>
      <trkpt lat="44.39893" lon="5.77976">
        <ele>1295.5999755859</ele>
        <time>2020-05-18T10:44:36Z</time>
      </trkpt>
      <trkpt lat="44.39892" lon="5.77976">
        <ele>1295.5999755859</ele>
        <time>2020-05-18T10:50:28Z</time>
      </trkpt>
      <trkpt lat="44.3989" lon="5.77975">
        <ele>1295.8000488281</ele>
        <time>2020-05-18T10:50:58Z</time>
      </trkpt>
      <trkpt lat="44.39875" lon="5.77982">
        <ele>1293</ele>
        <time>2020-05-18T10:51:25Z</time>
      </trkpt>
      <trkpt lat="44.39868" lon="5.7799">
        <ele>1290</ele>
        <time>2020-05-18T10:51:44Z</time>
      </trkpt>
      <trkpt lat="44.39871" lon="5.77999">
        <ele>1287</ele>
        <time>2020-05-18T10:52:07Z</time>
      </trkpt>
      <trkpt lat="44.39872" lon="5.78">
        <ele>1287</ele>
        <time>2020-05-18T10:53:08Z</time>
      </trkpt>
      <trkpt lat="44.39866" lon="5.78002">
        <ele>1286.4000244141</ele>
        <time>2020-05-18T10:53:35Z</time>
      </trkpt>
      <trkpt lat="44.39861" lon="5.78014">
        <ele>1283</ele>
        <time>2020-05-18T10:53:54Z</time>
      </trkpt>
      <trkpt lat="44.39862" lon="5.7803">
        <ele>1279.8000488281</ele>
        <time>2020-05-18T10:54:15Z</time>
      </trkpt>
      <trkpt lat="44.39858" lon="5.78043">
        <ele>1276.8000488281</ele>
        <time>2020-05-18T10:54:31Z</time>
      </trkpt>
      <trkpt lat="44.39853" lon="5.78056">
        <ele>1273.5999755859</ele>
        <time>2020-05-18T10:54:47Z</time>
      </trkpt>
      <trkpt lat="44.39854" lon="5.78071">
        <ele>1270.5999755859</ele>
        <time>2020-05-18T10:55:03Z</time>
      </trkpt>
      <trkpt lat="44.39852" lon="5.78083">
        <ele>1267.4000244141</ele>
        <time>2020-05-18T10:55:20Z</time>
      </trkpt>
      <trkpt lat="44.39849" lon="5.78093">
        <ele>1264.4000244141</ele>
        <time>2020-05-18T10:55:34Z</time>
      </trkpt>
      <trkpt lat="44.39845" lon="5.78102">
        <ele>1261.4000244141</ele>
        <time>2020-05-18T10:55:49Z</time>
      </trkpt>
      <trkpt lat="44.39841" lon="5.78112">
        <ele>1258.4000244141</ele>
        <time>2020-05-18T10:56:06Z</time>
      </trkpt>
      <trkpt lat="44.39835" lon="5.78128">
        <ele>1255.4000244141</ele>
        <time>2020-05-18T10:56:26Z</time>
      </trkpt>
      <trkpt lat="44.39834" lon="5.7814">
        <ele>1252.1999511719</ele>
        <time>2020-05-18T10:56:44Z</time>
      </trkpt>
      <trkpt lat="44.39828" lon="5.7815">
        <ele>1249.1999511719</ele>
        <time>2020-05-18T10:57:01Z</time>
      </trkpt>
      <trkpt lat="44.39821" lon="5.78162">
        <ele>1246.1999511719</ele>
        <time>2020-05-18T10:57:21Z</time>
      </trkpt>
      <trkpt lat="44.3982" lon="5.78174">
        <ele>1243</ele>
        <time>2020-05-18T10:57:38Z</time>
      </trkpt>
      <trkpt lat="44.3982" lon="5.78183">
        <ele>1240</ele>
        <time>2020-05-18T10:57:52Z</time>
      </trkpt>
      <trkpt lat="44.39817" lon="5.78197">
        <ele>1236.8000488281</ele>
        <time>2020-05-18T10:58:12Z</time>
      </trkpt>
      <trkpt lat="44.39815" lon="5.78208">
        <ele>1233.5999755859</ele>
        <time>2020-05-18T10:58:31Z</time>
      </trkpt>
      <trkpt lat="44.39814" lon="5.78226">
        <ele>1230.4000244141</ele>
        <time>2020-05-18T10:58:53Z</time>
      </trkpt>
      <trkpt lat="44.39809" lon="5.78239">
        <ele>1227.1999511719</ele>
        <time>2020-05-18T10:59:11Z</time>
      </trkpt>
      <trkpt lat="44.39809" lon="5.78252">
        <ele>1224.1999511719</ele>
        <time>2020-05-18T10:59:28Z</time>
      </trkpt>
      <trkpt lat="44.39806" lon="5.78267">
        <ele>1221</ele>
        <time>2020-05-18T10:59:48Z</time>
      </trkpt>
      <trkpt lat="44.39801" lon="5.78279">
        <ele>1218</ele>
        <time>2020-05-18T11:00:06Z</time>
      </trkpt>
      <trkpt lat="44.39804" lon="5.78291">
        <ele>1214.8000488281</ele>
        <time>2020-05-18T11:00:21Z</time>
      </trkpt>
      <trkpt lat="44.39805" lon="5.78305">
        <ele>1211.8000488281</ele>
        <time>2020-05-18T11:00:38Z</time>
      </trkpt>
      <trkpt lat="44.39804" lon="5.78319">
        <ele>1208.4000244141</ele>
        <time>2020-05-18T11:01:03Z</time>
      </trkpt>
      <trkpt lat="44.39802" lon="5.78331">
        <ele>1205.4000244141</ele>
        <time>2020-05-18T11:01:21Z</time>
      </trkpt>
      <trkpt lat="44.39797" lon="5.78337">
        <ele>1202.4000244141</ele>
        <time>2020-05-18T11:01:44Z</time>
      </trkpt>
      <trkpt lat="44.39791" lon="5.78344">
        <ele>1199.4000244141</ele>
        <time>2020-05-18T11:02:02Z</time>
      </trkpt>
      <trkpt lat="44.39786" lon="5.78352">
        <ele>1196.4000244141</ele>
        <time>2020-05-18T11:02:23Z</time>
      </trkpt>
      <trkpt lat="44.39777" lon="5.78359">
        <ele>1193.4000244141</ele>
        <time>2020-05-18T11:02:44Z</time>
      </trkpt>
      <trkpt lat="44.39775" lon="5.78366">
        <ele>1190.4000244141</ele>
        <time>2020-05-18T11:03:00Z</time>
      </trkpt>
      <trkpt lat="44.39774" lon="5.78376">
        <ele>1187.8000488281</ele>
        <time>2020-05-18T11:03:19Z</time>
      </trkpt>
      <trkpt lat="44.39779" lon="5.78394">
        <ele>1184.8000488281</ele>
        <time>2020-05-18T11:03:38Z</time>
      </trkpt>
      <trkpt lat="44.39787" lon="5.78404">
        <ele>1182.8000488281</ele>
        <time>2020-05-18T11:03:52Z</time>
      </trkpt>
      <trkpt lat="44.39804" lon="5.78412">
        <ele>1181.5999755859</ele>
        <time>2020-05-18T11:04:12Z</time>
      </trkpt>
      <trkpt lat="44.39822" lon="5.78422">
        <ele>1178.4000244141</ele>
        <time>2020-05-18T11:04:37Z</time>
      </trkpt>
      <trkpt lat="44.39834" lon="5.78422">
        <ele>1175.4000244141</ele>
        <time>2020-05-18T11:04:51Z</time>
      </trkpt>
      <trkpt lat="44.3985" lon="5.78428">
        <ele>1172.4000244141</ele>
        <time>2020-05-18T11:05:13Z</time>
      </trkpt>
      <trkpt lat="44.3986" lon="5.78423">
        <ele>1169.1999511719</ele>
        <time>2020-05-18T11:05:28Z</time>
      </trkpt>
      <trkpt lat="44.39869" lon="5.78418">
        <ele>1167</ele>
        <time>2020-05-18T11:05:48Z</time>
      </trkpt>
      <trkpt lat="44.39874" lon="5.78427">
        <ele>1163.8000488281</ele>
        <time>2020-05-18T11:06:05Z</time>
      </trkpt>
      <trkpt lat="44.39876" lon="5.78443">
        <ele>1160.5999755859</ele>
        <time>2020-05-18T11:06:24Z</time>
      </trkpt>
      <trkpt lat="44.3988" lon="5.78452">
        <ele>1157.5999755859</ele>
        <time>2020-05-18T11:06:36Z</time>
      </trkpt>
      <trkpt lat="44.39886" lon="5.78464">
        <ele>1154.4000244141</ele>
        <time>2020-05-18T11:06:53Z</time>
      </trkpt>
      <trkpt lat="44.39891" lon="5.78474">
        <ele>1151.4000244141</ele>
        <time>2020-05-18T11:07:05Z</time>
      </trkpt>
      <trkpt lat="44.39897" lon="5.78495">
        <ele>1148.1999511719</ele>
        <time>2020-05-18T11:07:22Z</time>
      </trkpt>
      <trkpt lat="44.39897" lon="5.78513">
        <ele>1145</ele>
        <time>2020-05-18T11:07:39Z</time>
      </trkpt>
      <trkpt lat="44.39896" lon="5.78525">
        <ele>1141.8000488281</ele>
        <time>2020-05-18T11:07:50Z</time>
      </trkpt>
      <trkpt lat="44.39894" lon="5.7854">
        <ele>1138.8000488281</ele>
        <time>2020-05-18T11:08:06Z</time>
      </trkpt>
      <trkpt lat="44.39896" lon="5.78531">
        <ele>1137.5999755859</ele>
        <time>2020-05-18T11:08:38Z</time>
      </trkpt>
      <trkpt lat="44.39895" lon="5.78554">
        <ele>1136.8000488281</ele>
        <time>2020-05-18T11:09:05Z</time>
      </trkpt>
      <trkpt lat="44.39896" lon="5.78573">
        <ele>1133.8000488281</ele>
        <time>2020-05-18T11:09:21Z</time>
      </trkpt>
      <trkpt lat="44.39896" lon="5.78594">
        <ele>1130.5999755859</ele>
        <time>2020-05-18T11:09:35Z</time>
      </trkpt>
      <trkpt lat="44.39896" lon="5.78618">
        <ele>1127.5999755859</ele>
        <time>2020-05-18T11:09:53Z</time>
      </trkpt>
      <trkpt lat="44.39897" lon="5.78635">
        <ele>1124.5999755859</ele>
        <time>2020-05-18T11:10:09Z</time>
      </trkpt>
      <trkpt lat="44.39903" lon="5.78652">
        <ele>1121.5999755859</ele>
        <time>2020-05-18T11:10:28Z</time>
      </trkpt>
      <trkpt lat="44.39899" lon="5.78662">
        <ele>1119</ele>
        <time>2020-05-18T11:10:46Z</time>
      </trkpt>
      <trkpt lat="44.39889" lon="5.78678">
        <ele>1116.4000244141</ele>
        <time>2020-05-18T11:11:08Z</time>
      </trkpt>
      <trkpt lat="44.39881" lon="5.7869">
        <ele>1113.1999511719</ele>
        <time>2020-05-18T11:11:23Z</time>
      </trkpt>
      <trkpt lat="44.39871" lon="5.78698">
        <ele>1110</ele>
        <time>2020-05-18T11:11:41Z</time>
      </trkpt>
      <trkpt lat="44.39862" lon="5.7871">
        <ele>1106.8000488281</ele>
        <time>2020-05-18T11:11:58Z</time>
      </trkpt>
      <trkpt lat="44.39855" lon="5.78723">
        <ele>1103.8000488281</ele>
        <time>2020-05-18T11:12:18Z</time>
      </trkpt>
      <trkpt lat="44.39845" lon="5.78727">
        <ele>1100.8000488281</ele>
        <time>2020-05-18T11:12:40Z</time>
      </trkpt>
      <trkpt lat="44.39837" lon="5.78735">
        <ele>1097.5999755859</ele>
        <time>2020-05-18T11:12:55Z</time>
      </trkpt>
      <trkpt lat="44.3983" lon="5.78744">
        <ele>1094.5999755859</ele>
        <time>2020-05-18T11:13:17Z</time>
      </trkpt>
      <trkpt lat="44.3982" lon="5.78754">
        <ele>1092.4000244141</ele>
        <time>2020-05-18T11:13:36Z</time>
      </trkpt>
      <trkpt lat="44.39816" lon="5.78765">
        <ele>1090</ele>
        <time>2020-05-18T11:13:52Z</time>
      </trkpt>
      <trkpt lat="44.39805" lon="5.7877">
        <ele>1087</ele>
        <time>2020-05-18T11:14:08Z</time>
      </trkpt>
      <trkpt lat="44.39798" lon="5.78772">
        <ele>1084.1999511719</ele>
        <time>2020-05-18T11:14:25Z</time>
      </trkpt>
      <trkpt lat="44.39791" lon="5.7878">
        <ele>1081.8000488281</ele>
        <time>2020-05-18T11:14:43Z</time>
      </trkpt>
      <trkpt lat="44.39783" lon="5.78792">
        <ele>1079</ele>
        <time>2020-05-18T11:15:04Z</time>
      </trkpt>
      <trkpt lat="44.39774" lon="5.78802">
        <ele>1075.8000488281</ele>
        <time>2020-05-18T11:15:20Z</time>
      </trkpt>
      <trkpt lat="44.39764" lon="5.78809">
        <ele>1072.8000488281</ele>
        <time>2020-05-18T11:15:37Z</time>
      </trkpt>
      <trkpt lat="44.39752" lon="5.78818">
        <ele>1070</ele>
        <time>2020-05-18T11:15:52Z</time>
      </trkpt>
      <trkpt lat="44.39744" lon="5.78821">
        <ele>1069</ele>
        <time>2020-05-18T11:16:02Z</time>
      </trkpt>
      <trkpt lat="44.39734" lon="5.78828">
        <ele>1067.8000488281</ele>
        <time>2020-05-18T11:16:13Z</time>
      </trkpt>
      <trkpt lat="44.39721" lon="5.7884">
        <ele>1065.8000488281</ele>
        <time>2020-05-18T11:16:29Z</time>
      </trkpt>
      <trkpt lat="44.39708" lon="5.78849">
        <ele>1063.8000488281</ele>
        <time>2020-05-18T11:16:43Z</time>
      </trkpt>
      <trkpt lat="44.39696" lon="5.78858">
        <ele>1062.1999511719</ele>
        <time>2020-05-18T11:16:57Z</time>
      </trkpt>
      <trkpt lat="44.39687" lon="5.78865">
        <ele>1060.4000244141</ele>
        <time>2020-05-18T11:17:09Z</time>
      </trkpt>
      <trkpt lat="44.39672" lon="5.78875">
        <ele>1059.5999755859</ele>
        <time>2020-05-18T11:17:26Z</time>
      </trkpt>
      <trkpt lat="44.39671" lon="5.78876">
        <ele>1059.5999755859</ele>
        <time>2020-05-18T11:17:27Z</time>
      </trkpt>
      <trkpt lat="44.39657" lon="5.78887">
        <ele>1059.1999511719</ele>
        <time>2020-05-18T11:17:39Z</time>
      </trkpt>
      <trkpt lat="44.39653" lon="5.7889">
        <ele>1059.1999511719</ele>
        <time>2020-05-18T11:17:43Z</time>
      </trkpt>
      <trkpt lat="44.39642" lon="5.78894">
        <ele>1059.4000244141</ele>
        <time>2020-05-18T11:18:04Z</time>
      </trkpt>
      <trkpt lat="44.39641" lon="5.78902">
        <ele>1059.4000244141</ele>
        <time>2020-05-18T11:18:33Z</time>
      </trkpt>
      <trkpt lat="44.39649" lon="5.78913">
        <ele>1057.5999755859</ele>
        <time>2020-05-18T11:18:52Z</time>
      </trkpt>
      <trkpt lat="44.39659" lon="5.78916">
        <ele>1054.1999511719</ele>
        <time>2020-05-18T11:19:07Z</time>
      </trkpt>
      <trkpt lat="44.39671" lon="5.78913">
        <ele>1051.1999511719</ele>
        <time>2020-05-18T11:19:22Z</time>
      </trkpt>
      <trkpt lat="44.39683" lon="5.78912">
        <ele>1048</ele>
        <time>2020-05-18T11:19:36Z</time>
      </trkpt>
      <trkpt lat="44.397" lon="5.78907">
        <ele>1045</ele>
        <time>2020-05-18T11:19:56Z</time>
      </trkpt>
      <trkpt lat="44.39712" lon="5.78904">
        <ele>1042</ele>
        <time>2020-05-18T11:20:11Z</time>
      </trkpt>
      <trkpt lat="44.39721" lon="5.78906">
        <ele>1039</ele>
        <time>2020-05-18T11:20:26Z</time>
      </trkpt>
      <trkpt lat="44.39735" lon="5.78907">
        <ele>1036</ele>
        <time>2020-05-18T11:20:45Z</time>
      </trkpt>
      <trkpt lat="44.39745" lon="5.78909">
        <ele>1033</ele>
        <time>2020-05-18T11:20:59Z</time>
      </trkpt>
      <trkpt lat="44.39759" lon="5.78906">
        <ele>1029.8000488281</ele>
        <time>2020-05-18T11:21:13Z</time>
      </trkpt>
      <trkpt lat="44.39778" lon="5.78901">
        <ele>1027.5999755859</ele>
        <time>2020-05-18T11:21:35Z</time>
      </trkpt>
      <trkpt lat="44.39799" lon="5.78901">
        <ele>1024.8000488281</ele>
        <time>2020-05-18T11:21:58Z</time>
      </trkpt>
      <trkpt lat="44.3981" lon="5.78902">
        <ele>1021.799987793</ele>
        <time>2020-05-18T11:22:10Z</time>
      </trkpt>
      <trkpt lat="44.39824" lon="5.789">
        <ele>1018.5999755859</ele>
        <time>2020-05-18T11:22:26Z</time>
      </trkpt>
      <trkpt lat="44.39838" lon="5.78902">
        <ele>1015.4000244141</ele>
        <time>2020-05-18T11:22:43Z</time>
      </trkpt>
      <trkpt lat="44.39846" lon="5.78908">
        <ele>1013</ele>
        <time>2020-05-18T11:23:00Z</time>
      </trkpt>
      <trkpt lat="44.39862" lon="5.78911">
        <ele>1010.799987793</ele>
        <time>2020-05-18T11:23:28Z</time>
      </trkpt>
      <trkpt lat="44.3988" lon="5.78919">
        <ele>1007.5999755859</ele>
        <time>2020-05-18T11:23:48Z</time>
      </trkpt>
      <trkpt lat="44.39892" lon="5.78934">
        <ele>1004.5999755859</ele>
        <time>2020-05-18T11:24:09Z</time>
      </trkpt>
      <trkpt lat="44.39904" lon="5.78943">
        <ele>1001.5999755859</ele>
        <time>2020-05-18T11:24:27Z</time>
      </trkpt>
      <trkpt lat="44.39916" lon="5.78952">
        <ele>998.40002441406</ele>
        <time>2020-05-18T11:24:45Z</time>
      </trkpt>
      <trkpt lat="44.39932" lon="5.78957">
        <ele>995.20001220703</ele>
        <time>2020-05-18T11:25:05Z</time>
      </trkpt>
      <trkpt lat="44.39948" lon="5.78968">
        <ele>992</ele>
        <time>2020-05-18T11:25:25Z</time>
      </trkpt>
      <trkpt lat="44.39958" lon="5.78982">
        <ele>988.79998779297</ele>
        <time>2020-05-18T11:25:43Z</time>
      </trkpt>
      <trkpt lat="44.39951" lon="5.78996">
        <ele>985.79998779297</ele>
        <time>2020-05-18T11:25:57Z</time>
      </trkpt>
      <trkpt lat="44.3994" lon="5.79007">
        <ele>982.59997558594</ele>
        <time>2020-05-18T11:26:17Z</time>
      </trkpt>
      <trkpt lat="44.39937" lon="5.79022">
        <ele>979.59997558594</ele>
        <time>2020-05-18T11:26:31Z</time>
      </trkpt>
      <trkpt lat="44.39936" lon="5.79043">
        <ele>976.59997558594</ele>
        <time>2020-05-18T11:26:47Z</time>
      </trkpt>
      <trkpt lat="44.39933" lon="5.79062">
        <ele>973.40002441406</ele>
        <time>2020-05-18T11:27:07Z</time>
      </trkpt>
      <trkpt lat="44.39921" lon="5.7908">
        <ele>970.20001220703</ele>
        <time>2020-05-18T11:27:26Z</time>
      </trkpt>
      <trkpt lat="44.39912" lon="5.79085">
        <ele>967.20001220703</ele>
        <time>2020-05-18T11:27:41Z</time>
      </trkpt>
      <trkpt lat="44.39899" lon="5.79089">
        <ele>964.20001220703</ele>
        <time>2020-05-18T11:27:59Z</time>
      </trkpt>
      <trkpt lat="44.39881" lon="5.79087">
        <ele>961</ele>
        <time>2020-05-18T11:28:21Z</time>
      </trkpt>
      <trkpt lat="44.39867" lon="5.79084">
        <ele>958</ele>
        <time>2020-05-18T11:28:38Z</time>
      </trkpt>
      <trkpt lat="44.39844" lon="5.79093">
        <ele>955</ele>
        <time>2020-05-18T11:29:01Z</time>
      </trkpt>
      <trkpt lat="44.39853" lon="5.7911">
        <ele>952.79998779297</ele>
        <time>2020-05-18T11:29:23Z</time>
      </trkpt>
      <trkpt lat="44.39871" lon="5.79135">
        <ele>949.59997558594</ele>
        <time>2020-05-18T11:29:50Z</time>
      </trkpt>
      <trkpt lat="44.39888" lon="5.79154">
        <ele>946.40002441406</ele>
        <time>2020-05-18T11:30:13Z</time>
      </trkpt>
      <trkpt lat="44.399" lon="5.7917">
        <ele>943.40002441406</ele>
        <time>2020-05-18T11:30:31Z</time>
      </trkpt>
      <trkpt lat="44.39917" lon="5.79184">
        <ele>940.20001220703</ele>
        <time>2020-05-18T11:30:52Z</time>
      </trkpt>
      <trkpt lat="44.39932" lon="5.79197">
        <ele>937.20001220703</ele>
        <time>2020-05-18T11:31:12Z</time>
      </trkpt>
      <trkpt lat="44.39946" lon="5.79208">
        <ele>934.20001220703</ele>
        <time>2020-05-18T11:31:29Z</time>
      </trkpt>
      <trkpt lat="44.3996" lon="5.79213">
        <ele>931.20001220703</ele>
        <time>2020-05-18T11:31:48Z</time>
      </trkpt>
      <trkpt lat="44.39968" lon="5.7921">
        <ele>928.20001220703</ele>
        <time>2020-05-18T11:32:05Z</time>
      </trkpt>
      <trkpt lat="44.39983" lon="5.79206">
        <ele>925</ele>
        <time>2020-05-18T11:32:30Z</time>
      </trkpt>
      <trkpt lat="44.39982" lon="5.79227">
        <ele>922</ele>
        <time>2020-05-18T11:32:49Z</time>
      </trkpt>
      <trkpt lat="44.39978" lon="5.79236">
        <ele>921.20001220703</ele>
        <time>2020-05-18T11:32:57Z</time>
      </trkpt>
      <trkpt lat="44.39966" lon="5.79258">
        <ele>918.59997558594</ele>
        <time>2020-05-18T11:33:16Z</time>
      </trkpt>
      <trkpt lat="44.39955" lon="5.79273">
        <ele>915.40002441406</ele>
        <time>2020-05-18T11:33:33Z</time>
      </trkpt>
      <trkpt lat="44.39945" lon="5.79298">
        <ele>912.40002441406</ele>
        <time>2020-05-18T11:33:53Z</time>
      </trkpt>
      <trkpt lat="44.3996" lon="5.79319">
        <ele>909.20001220703</ele>
        <time>2020-05-18T11:34:15Z</time>
      </trkpt>
      <trkpt lat="44.39973" lon="5.79345">
        <ele>906.20001220703</ele>
        <time>2020-05-18T11:34:41Z</time>
      </trkpt>
      <trkpt lat="44.39973" lon="5.79371">
        <ele>903</ele>
        <time>2020-05-18T11:35:01Z</time>
      </trkpt>
      <trkpt lat="44.39975" lon="5.79376">
        <ele>901.59997558594</ele>
        <time>2020-05-18T11:35:30Z</time>
      </trkpt>
      <trkpt lat="44.39974" lon="5.79389">
        <ele>900.79998779297</ele>
        <time>2020-05-18T11:36:00Z</time>
      </trkpt>
      <trkpt lat="44.3996" lon="5.79418">
        <ele>899</ele>
        <time>2020-05-18T11:36:26Z</time>
      </trkpt>
      <trkpt lat="44.39954" lon="5.7943">
        <ele>898.40002441406</ele>
        <time>2020-05-18T11:36:48Z</time>
      </trkpt>
      <trkpt lat="44.39953" lon="5.79432">
        <ele>898.40002441406</ele>
        <time>2020-05-18T11:36:50Z</time>
      </trkpt>
      <trkpt lat="44.39946" lon="5.79452">
        <ele>898.59997558594</ele>
        <time>2020-05-18T11:37:22Z</time>
      </trkpt>
      <trkpt lat="44.39941" lon="5.79469">
        <ele>898.79998779297</ele>
        <time>2020-05-18T11:37:46Z</time>
      </trkpt>
      <trkpt lat="44.39938" lon="5.79472">
        <ele>898.20001220703</ele>
        <time>2020-05-18T11:38:08Z</time>
      </trkpt>
      <trkpt lat="44.39923" lon="5.79473">
        <ele>898</ele>
        <time>2020-05-18T11:38:39Z</time>
      </trkpt>
      <trkpt lat="44.39887" lon="5.79503">
        <ele>896.40002441406</ele>
        <time>2020-05-18T11:39:10Z</time>
      </trkpt>
      <trkpt lat="44.39868" lon="5.79518">
        <ele>895.59997558594</ele>
        <time>2020-05-18T11:39:33Z</time>
      </trkpt>
      <trkpt lat="44.39835" lon="5.7954">
        <ele>895.20001220703</ele>
        <time>2020-05-18T11:40:09Z</time>
      </trkpt>
      <trkpt lat="44.39823" lon="5.79557">
        <ele>895</ele>
        <time>2020-05-18T11:40:23Z</time>
      </trkpt>
      <trkpt lat="44.3979" lon="5.79576">
        <ele>895.20001220703</ele>
        <time>2020-05-18T11:40:55Z</time>
      </trkpt>
      <trkpt lat="44.39759" lon="5.79571">
        <ele>894.20001220703</ele>
        <time>2020-05-18T11:41:25Z</time>
      </trkpt>
      <trkpt lat="44.39726" lon="5.79556">
        <ele>891.20001220703</ele>
        <time>2020-05-18T11:41:55Z</time>
      </trkpt>
      <trkpt lat="44.39711" lon="5.79547">
        <ele>889.59997558594</ele>
        <time>2020-05-18T11:42:18Z</time>
      </trkpt>
      <trkpt lat="44.39699" lon="5.79532">
        <ele>889.40002441406</ele>
        <time>2020-05-18T11:42:59Z</time>
      </trkpt>
      <trkpt lat="44.39699" lon="5.79531">
        <ele>889.40002441406</ele>
        <time>2020-05-18T11:43:06Z</time>
      </trkpt>
      <trkpt lat="44.397" lon="5.79532">
        <ele>900.40002441406</ele>
        <time>2020-05-18T11:43:08Z</time>
      </trkpt>
      <trkpt lat="44.397" lon="5.79532">
        <ele>900.40002441406</ele>
        <time>2020-05-18T11:43:09Z</time>
      </trkpt>
      <trkpt lat="44.397" lon="5.79532">
        <ele>900.40002441406</ele>
        <time>2020-05-18T11:43:10Z</time>
      </trkpt>
      <trkpt lat="44.397" lon="5.79533">
        <ele>900.40002441406</ele>
        <time>2020-05-18T11:43:11Z</time>
      </trkpt>
      <trkpt lat="44.39701" lon="5.79534">
        <ele>900.40002441406</ele>
        <time>2020-05-18T11:43:12Z</time>
      </trkpt>
      <trkpt lat="44.39701" lon="5.79535">
        <ele>900.20001220703</ele>
        <time>2020-05-18T11:43:14Z</time>
      </trkpt>
      <trkpt lat="44.39681" lon="5.79526">
        <ele>899.79998779297</ele>
        <time>2020-05-18T11:43:37Z</time>
      </trkpt>
      <trkpt lat="44.3968" lon="5.79526">
        <ele>899.59997558594</ele>
        <time>2020-05-18T11:43:38Z</time>
      </trkpt>
      <trkpt lat="44.39651" lon="5.79531">
        <ele>898</ele>
        <time>2020-05-18T11:44:00Z</time>
      </trkpt>
      <trkpt lat="44.39618" lon="5.79535">
        <ele>896.79998779297</ele>
        <time>2020-05-18T11:44:27Z</time>
      </trkpt>
      <trkpt lat="44.39587" lon="5.79549">
        <ele>895.79998779297</ele>
        <time>2020-05-18T11:44:55Z</time>
      </trkpt>
      <trkpt lat="44.39577" lon="5.79552">
        <ele>895.40002441406</ele>
        <time>2020-05-18T11:45:06Z</time>
      </trkpt>
      <trkpt lat="44.39545" lon="5.79564">
        <ele>894</ele>
        <time>2020-05-18T11:45:35Z</time>
      </trkpt>
      <trkpt lat="44.39517" lon="5.79571">
        <ele>892.40002441406</ele>
        <time>2020-05-18T11:46:01Z</time>
      </trkpt>
      <trkpt lat="44.39483" lon="5.79572">
        <ele>890.59997558594</ele>
        <time>2020-05-18T11:46:30Z</time>
      </trkpt>
      <trkpt lat="44.39456" lon="5.79584">
        <ele>888.40002441406</ele>
        <time>2020-05-18T11:46:57Z</time>
      </trkpt>
      <trkpt lat="44.39423" lon="5.79586">
        <ele>886.40002441406</ele>
        <time>2020-05-18T11:47:26Z</time>
      </trkpt>
      <trkpt lat="44.39391" lon="5.79593">
        <ele>884.79998779297</ele>
        <time>2020-05-18T11:47:52Z</time>
      </trkpt>
      <trkpt lat="44.39389" lon="5.79594">
        <ele>884.59997558594</ele>
        <time>2020-05-18T11:47:55Z</time>
      </trkpt>
      <trkpt lat="44.3938" lon="5.79595">
        <ele>884</ele>
        <time>2020-05-18T11:48:02Z</time>
      </trkpt>
      <trkpt lat="44.39376" lon="5.79594">
        <ele>883.79998779297</ele>
        <time>2020-05-18T11:48:05Z</time>
      </trkpt>
      <trkpt lat="44.39361" lon="5.79587">
        <ele>883</ele>
        <time>2020-05-18T11:48:21Z</time>
      </trkpt>
      <trkpt lat="44.39324" lon="5.79595">
        <ele>880.79998779297</ele>
        <time>2020-05-18T11:48:51Z</time>
      </trkpt>
      <trkpt lat="44.39295" lon="5.79594">
        <ele>877.79998779297</ele>
        <time>2020-05-18T11:49:22Z</time>
      </trkpt>
      <trkpt lat="44.39275" lon="5.79588">
        <ele>876.59997558594</ele>
        <time>2020-05-18T11:49:42Z</time>
      </trkpt>
      <trkpt lat="44.39249" lon="5.79587">
        <ele>875.20001220703</ele>
        <time>2020-05-18T11:50:09Z</time>
      </trkpt>
      <trkpt lat="44.39227" lon="5.79603">
        <ele>872.40002441406</ele>
        <time>2020-05-18T11:50:30Z</time>
      </trkpt>
      <trkpt lat="44.3921" lon="5.79614">
        <ele>869.20001220703</ele>
        <time>2020-05-18T11:50:52Z</time>
      </trkpt>
      <trkpt lat="44.39193" lon="5.79624">
        <ele>866.20001220703</ele>
        <time>2020-05-18T11:51:12Z</time>
      </trkpt>
      <trkpt lat="44.3917" lon="5.79639">
        <ele>863.20001220703</ele>
        <time>2020-05-18T11:51:35Z</time>
      </trkpt>
      <trkpt lat="44.39159" lon="5.7964">
        <ele>860</ele>
        <time>2020-05-18T11:51:55Z</time>
      </trkpt>
      <trkpt lat="44.39144" lon="5.79636">
        <ele>857</ele>
        <time>2020-05-18T11:52:13Z</time>
      </trkpt>
      <trkpt lat="44.39132" lon="5.79633">
        <ele>854</ele>
        <time>2020-05-18T11:52:30Z</time>
      </trkpt>
      <trkpt lat="44.3912" lon="5.79638">
        <ele>850.79998779297</ele>
        <time>2020-05-18T11:52:47Z</time>
      </trkpt>
      <trkpt lat="44.39111" lon="5.79641">
        <ele>847.79998779297</ele>
        <time>2020-05-18T11:53:05Z</time>
      </trkpt>
      <trkpt lat="44.39105" lon="5.79645">
        <ele>844.79998779297</ele>
        <time>2020-05-18T11:53:23Z</time>
      </trkpt>
      <trkpt lat="44.39096" lon="5.79645">
        <ele>842.79998779297</ele>
        <time>2020-05-18T11:53:48Z</time>
      </trkpt>
      <trkpt lat="44.39094" lon="5.79644">
        <ele>842.20001220703</ele>
        <time>2020-05-18T11:53:52Z</time>
      </trkpt>
      <trkpt lat="44.3908" lon="5.7965">
        <ele>839</ele>
        <time>2020-05-18T11:54:07Z</time>
      </trkpt>
      <trkpt lat="44.39067" lon="5.79644">
        <ele>837</ele>
        <time>2020-05-18T11:54:29Z</time>
      </trkpt>
      <trkpt lat="44.39069" lon="5.79646">
        <ele>836.20001220703</ele>
        <time>2020-05-18T11:55:08Z</time>
      </trkpt>
      <trkpt lat="44.39056" lon="5.79659">
        <ele>835.79998779297</ele>
        <time>2020-05-18T11:55:31Z</time>
      </trkpt>
      <trkpt lat="44.39043" lon="5.79648">
        <ele>832.79998779297</ele>
        <time>2020-05-18T11:55:55Z</time>
      </trkpt>
      <trkpt lat="44.39038" lon="5.79641">
        <ele>830.79998779297</ele>
        <time>2020-05-18T11:56:22Z</time>
      </trkpt>
      <trkpt lat="44.39035" lon="5.79641">
        <ele>830.79998779297</ele>
        <time>2020-05-18T11:56:32Z</time>
      </trkpt>
      <trkpt lat="44.39035" lon="5.79652">
        <ele>830.79998779297</ele>
        <time>2020-05-18T11:57:21Z</time>
      </trkpt>
      <trkpt lat="44.39033" lon="5.79637">
        <ele>830.20001220703</ele>
        <time>2020-05-18T11:58:15Z</time>
      </trkpt>
      <trkpt lat="44.39026" lon="5.79623">
        <ele>828.40002441406</ele>
        <time>2020-05-18T11:58:40Z</time>
      </trkpt>
      <trkpt lat="44.39009" lon="5.79601">
        <ele>825.59997558594</ele>
        <time>2020-05-18T11:59:06Z</time>
      </trkpt>
      <trkpt lat="44.38998" lon="5.7957">
        <ele>824.40002441406</ele>
        <time>2020-05-18T11:59:31Z</time>
      </trkpt>
      <trkpt lat="44.3899" lon="5.79536">
        <ele>822.79998779297</ele>
        <time>2020-05-18T12:00:00Z</time>
      </trkpt>
      <trkpt lat="44.38988" lon="5.79513">
        <ele>822.59997558594</ele>
        <time>2020-05-18T12:00:26Z</time>
      </trkpt>
      <trkpt lat="44.38984" lon="5.79503">
        <ele>822.79998779297</ele>
        <time>2020-05-18T12:00:48Z</time>
      </trkpt>
      <trkpt lat="44.38984" lon="5.79479">
        <ele>822.59997558594</ele>
        <time>2020-05-18T12:01:29Z</time>
      </trkpt>
      <trkpt lat="44.38977" lon="5.79455">
        <ele>822.20001220703</ele>
        <time>2020-05-18T12:01:51Z</time>
      </trkpt>
      <trkpt lat="44.38971" lon="5.79433">
        <ele>820</ele>
        <time>2020-05-18T12:02:14Z</time>
      </trkpt>
      <trkpt lat="44.38959" lon="5.7942">
        <ele>819</ele>
        <time>2020-05-18T12:02:40Z</time>
      </trkpt>
      <trkpt lat="44.38951" lon="5.79414">
        <ele>822</ele>
        <time>2020-05-18T12:03:02Z</time>
      </trkpt>
      <trkpt lat="44.38942" lon="5.79414">
        <ele>825.20001220703</ele>
        <time>2020-05-18T12:03:19Z</time>
      </trkpt>
      <trkpt lat="44.38942" lon="5.79413">
        <ele>826</ele>
        <time>2020-05-18T12:03:26Z</time>
      </trkpt>
      <trkpt lat="44.38934" lon="5.79407">
        <ele>829.20001220703</ele>
        <time>2020-05-18T12:03:44Z</time>
      </trkpt>
      <trkpt lat="44.3892" lon="5.79408">
        <ele>832.40002441406</ele>
        <time>2020-05-18T12:04:06Z</time>
      </trkpt>
      <trkpt lat="44.38915" lon="5.79414">
        <ele>835.40002441406</ele>
        <time>2020-05-18T12:04:25Z</time>
      </trkpt>
      <trkpt lat="44.38907" lon="5.79406">
        <ele>837.59997558594</ele>
        <time>2020-05-18T12:04:50Z</time>
      </trkpt>
      <trkpt lat="44.38898" lon="5.79395">
        <ele>839.79998779297</ele>
        <time>2020-05-18T12:05:15Z</time>
      </trkpt>
      <trkpt lat="44.38891" lon="5.79385">
        <ele>842.79998779297</ele>
        <time>2020-05-18T12:05:36Z</time>
      </trkpt>
      <trkpt lat="44.38888" lon="5.79369">
        <ele>845.40002441406</ele>
        <time>2020-05-18T12:05:52Z</time>
      </trkpt>
      <trkpt lat="44.3889" lon="5.79351">
        <ele>848</ele>
        <time>2020-05-18T12:06:10Z</time>
      </trkpt>
      <trkpt lat="44.38892" lon="5.7933">
        <ele>851</ele>
        <time>2020-05-18T12:06:34Z</time>
      </trkpt>
      <trkpt lat="44.38896" lon="5.79314">
        <ele>853.59997558594</ele>
        <time>2020-05-18T12:07:00Z</time>
      </trkpt>
      <trkpt lat="44.38894" lon="5.79301">
        <ele>856.40002441406</ele>
        <time>2020-05-18T12:07:21Z</time>
      </trkpt>
      <trkpt lat="44.38905" lon="5.79288">
        <ele>856.79998779297</ele>
        <time>2020-05-18T12:07:46Z</time>
      </trkpt>
      <trkpt lat="44.38916" lon="5.79278">
        <ele>855.59997558594</ele>
        <time>2020-05-18T12:08:09Z</time>
      </trkpt>
      <trkpt lat="44.3892" lon="5.79274">
        <ele>855</ele>
        <time>2020-05-18T12:08:40Z</time>
      </trkpt>
      <trkpt lat="44.38903" lon="5.79266">
        <ele>853.79998779297</ele>
        <time>2020-05-18T12:09:09Z</time>
      </trkpt>
      <trkpt lat="44.38895" lon="5.79261">
        <ele>853</ele>
        <time>2020-05-18T12:09:18Z</time>
      </trkpt>
      <trkpt lat="44.38877" lon="5.79249">
        <ele>849.79998779297</ele>
        <time>2020-05-18T12:09:39Z</time>
      </trkpt>
      <trkpt lat="44.38858" lon="5.79228">
        <ele>846.59997558594</ele>
        <time>2020-05-18T12:10:04Z</time>
      </trkpt>
      <trkpt lat="44.38843" lon="5.79211">
        <ele>844.59997558594</ele>
        <time>2020-05-18T12:10:26Z</time>
      </trkpt>
      <trkpt lat="44.38842" lon="5.7921">
        <ele>844.20001220703</ele>
        <time>2020-05-18T12:10:27Z</time>
      </trkpt>
      <trkpt lat="44.38834" lon="5.79189">
        <ele>841.20001220703</ele>
        <time>2020-05-18T12:10:47Z</time>
      </trkpt>
      <trkpt lat="44.38822" lon="5.7918">
        <ele>838.59997558594</ele>
        <time>2020-05-18T12:11:06Z</time>
      </trkpt>
      <trkpt lat="44.38807" lon="5.79198">
        <ele>835.59997558594</ele>
        <time>2020-05-18T12:11:29Z</time>
      </trkpt>
      <trkpt lat="44.38793" lon="5.79219">
        <ele>832.59997558594</ele>
        <time>2020-05-18T12:11:51Z</time>
      </trkpt>
      <trkpt lat="44.38791" lon="5.79229">
        <ele>831</ele>
        <time>2020-05-18T12:12:05Z</time>
      </trkpt>
      <trkpt lat="44.38784" lon="5.79228">
        <ele>828</ele>
        <time>2020-05-18T12:12:25Z</time>
      </trkpt>
      <trkpt lat="44.38779" lon="5.79206">
        <ele>825.59997558594</ele>
        <time>2020-05-18T12:12:48Z</time>
      </trkpt>
      <trkpt lat="44.38775" lon="5.79181">
        <ele>823.59997558594</ele>
        <time>2020-05-18T12:13:11Z</time>
      </trkpt>
      <trkpt lat="44.3878" lon="5.79156">
        <ele>821.20001220703</ele>
        <time>2020-05-18T12:13:38Z</time>
      </trkpt>
      <trkpt lat="44.38772" lon="5.79138">
        <ele>818.79998779297</ele>
        <time>2020-05-18T12:13:59Z</time>
      </trkpt>
      <trkpt lat="44.3875" lon="5.79135">
        <ele>816.20001220703</ele>
        <time>2020-05-18T12:14:26Z</time>
      </trkpt>
      <trkpt lat="44.38741" lon="5.79137">
        <ele>814</ele>
        <time>2020-05-18T12:14:53Z</time>
      </trkpt>
      <trkpt lat="44.38749" lon="5.79123">
        <ele>812.20001220703</ele>
        <time>2020-05-18T12:15:30Z</time>
      </trkpt>
      <trkpt lat="44.3877" lon="5.79115">
        <ele>810.40002441406</ele>
        <time>2020-05-18T12:16:04Z</time>
      </trkpt>
      <trkpt lat="44.3879" lon="5.79098">
        <ele>807.40002441406</ele>
        <time>2020-05-18T12:16:37Z</time>
      </trkpt>
      <trkpt lat="44.38803" lon="5.79071">
        <ele>805.20001220703</ele>
        <time>2020-05-18T12:17:03Z</time>
      </trkpt>
      <trkpt lat="44.38806" lon="5.79061">
        <ele>804</ele>
        <time>2020-05-18T12:17:15Z</time>
      </trkpt>
      <trkpt lat="44.38807" lon="5.79057">
        <ele>803.59997558594</ele>
        <time>2020-05-18T12:17:18Z</time>
      </trkpt>
      <trkpt lat="44.38809" lon="5.79053">
        <ele>803.40002441406</ele>
        <time>2020-05-18T12:17:22Z</time>
      </trkpt>
      <trkpt lat="44.38812" lon="5.7903">
        <ele>800.20001220703</ele>
        <time>2020-05-18T12:17:45Z</time>
      </trkpt>
      <trkpt lat="44.38793" lon="5.79027">
        <ele>797.79998779297</ele>
        <time>2020-05-18T12:18:04Z</time>
      </trkpt>
      <trkpt lat="44.38791" lon="5.79023">
        <ele>797.40002441406</ele>
        <time>2020-05-18T12:18:09Z</time>
      </trkpt>
      <trkpt lat="44.38783" lon="5.79006">
        <ele>795.79998779297</ele>
        <time>2020-05-18T12:18:27Z</time>
      </trkpt>
      <trkpt lat="44.38783" lon="5.79006">
        <ele>795.79998779297</ele>
        <time>2020-05-18T12:18:29Z</time>
      </trkpt>
      <trkpt lat="44.38782" lon="5.78995">
        <ele>795</ele>
        <time>2020-05-18T12:18:42Z</time>
      </trkpt>
      <trkpt lat="44.38781" lon="5.78985">
        <ele>793.40002441406</ele>
        <time>2020-05-18T12:18:55Z</time>
      </trkpt>
      <trkpt lat="44.38791" lon="5.78966">
        <ele>790.40002441406</ele>
        <time>2020-05-18T12:19:22Z</time>
      </trkpt>
      <trkpt lat="44.38805" lon="5.78953">
        <ele>789.20001220703</ele>
        <time>2020-05-18T12:19:46Z</time>
      </trkpt>
      <trkpt lat="44.38812" lon="5.78946">
        <ele>787.59997558594</ele>
        <time>2020-05-18T12:20:03Z</time>
      </trkpt>
      <trkpt lat="44.38828" lon="5.78934">
        <ele>784.59997558594</ele>
        <time>2020-05-18T12:20:23Z</time>
      </trkpt>
      <trkpt lat="44.38831" lon="5.78933">
        <ele>783.20001220703</ele>
        <time>2020-05-18T12:20:42Z</time>
      </trkpt>
      <trkpt lat="44.38832" lon="5.78932">
        <ele>783</ele>
        <time>2020-05-18T12:21:11Z</time>
      </trkpt>
      <trkpt lat="44.38832" lon="5.78931">
        <ele>783.40002441406</ele>
        <time>2020-05-18T12:21:39Z</time>
      </trkpt>
      <trkpt lat="44.38829" lon="5.78929">
        <ele>783.40002441406</ele>
        <time>2020-05-18T12:21:46Z</time>
      </trkpt>
      <trkpt lat="44.3883" lon="5.78935">
        <ele>783.59997558594</ele>
        <time>2020-05-18T12:22:16Z</time>
      </trkpt>
      <trkpt lat="44.38829" lon="5.78929">
        <ele>784</ele>
        <time>2020-05-18T12:23:14Z</time>
      </trkpt>
      <trkpt lat="44.38834" lon="5.78938">
        <ele>784.40002441406</ele>
        <time>2020-05-18T12:23:42Z</time>
      </trkpt>
      <trkpt lat="44.38831" lon="5.78942">
        <ele>784.40002441406</ele>
        <time>2020-05-18T12:23:46Z</time>
      </trkpt>
      <trkpt lat="44.38827" lon="5.78942">
        <ele>784.59997558594</ele>
        <time>2020-05-18T12:23:57Z</time>
      </trkpt>
      <trkpt lat="44.38828" lon="5.78938">
        <ele>784</ele>
        <time>2020-05-18T12:24:50Z</time>
      </trkpt>
      <trkpt lat="44.38831" lon="5.78934">
        <ele>784.20001220703</ele>
        <time>2020-05-18T12:25:05Z</time>
      </trkpt>
      <trkpt lat="44.38834" lon="5.78934">
        <ele>784.20001220703</ele>
        <time>2020-05-18T12:25:41Z</time>
      </trkpt>
      <trkpt lat="44.38827" lon="5.78937">
        <ele>784.79998779297</ele>
        <time>2020-05-18T12:26:18Z</time>
      </trkpt>
      <trkpt lat="44.38832" lon="5.78924">
        <ele>784.20001220703</ele>
        <time>2020-05-18T12:26:44Z</time>
      </trkpt>
      <trkpt lat="44.38835" lon="5.78921">
        <ele>783.20001220703</ele>
        <time>2020-05-18T12:26:54Z</time>
      </trkpt>
      <trkpt lat="44.38828" lon="5.78926">
        <ele>783</ele>
        <time>2020-05-18T12:27:41Z</time>
      </trkpt>
      <trkpt lat="44.38833" lon="5.78929">
        <ele>783.59997558594</ele>
        <time>2020-05-18T12:28:33Z</time>
      </trkpt>
      <trkpt lat="44.3883" lon="5.78927">
        <ele>783.59997558594</ele>
        <time>2020-05-18T12:28:56Z</time>
      </trkpt>
      <trkpt lat="44.38829" lon="5.78901">
        <ele>783.40002441406</ele>
        <time>2020-05-18T12:29:20Z</time>
      </trkpt>
      <trkpt lat="44.38817" lon="5.78875">
        <ele>783</ele>
        <time>2020-05-18T12:29:43Z</time>
      </trkpt>
      <trkpt lat="44.38809" lon="5.78863">
        <ele>783</ele>
        <time>2020-05-18T12:29:50Z</time>
      </trkpt>
      <trkpt lat="44.38793" lon="5.78835">
        <ele>781.59997558594</ele>
        <time>2020-05-18T12:30:12Z</time>
      </trkpt>
      <trkpt lat="44.38767" lon="5.78817">
        <ele>780.20001220703</ele>
        <time>2020-05-18T12:30:42Z</time>
      </trkpt>
      <trkpt lat="44.38755" lon="5.78808">
        <ele>779.59997558594</ele>
        <time>2020-05-18T12:30:55Z</time>
      </trkpt>
      <trkpt lat="44.38743" lon="5.788">
        <ele>779.40002441406</ele>
        <time>2020-05-18T12:31:06Z</time>
      </trkpt>
      <trkpt lat="44.38746" lon="5.7876">
        <ele>777</ele>
        <time>2020-05-18T12:31:33Z</time>
      </trkpt>
      <trkpt lat="44.38739" lon="5.78722">
        <ele>775.79998779297</ele>
        <time>2020-05-18T12:31:57Z</time>
      </trkpt>
      <trkpt lat="44.38724" lon="5.78691">
        <ele>774</ele>
        <time>2020-05-18T12:32:28Z</time>
      </trkpt>
      <trkpt lat="44.38714" lon="5.78685">
        <ele>773</ele>
        <time>2020-05-18T12:32:46Z</time>
      </trkpt>
      <trkpt lat="44.38706" lon="5.78677">
        <ele>772.40002441406</ele>
        <time>2020-05-18T12:33:05Z</time>
      </trkpt>
      <trkpt lat="44.38694" lon="5.78664">
        <ele>771.59997558594</ele>
        <time>2020-05-18T12:33:18Z</time>
      </trkpt>
      <trkpt lat="44.38679" lon="5.78632">
        <ele>770.40002441406</ele>
        <time>2020-05-18T12:33:47Z</time>
      </trkpt>
      <trkpt lat="44.3868" lon="5.78602">
        <ele>769.40002441406</ele>
        <time>2020-05-18T12:34:12Z</time>
      </trkpt>
      <trkpt lat="44.38663" lon="5.78563">
        <ele>767.79998779297</ele>
        <time>2020-05-18T12:34:43Z</time>
      </trkpt>
      <trkpt lat="44.38651" lon="5.78535">
        <ele>767</ele>
        <time>2020-05-18T12:35:06Z</time>
      </trkpt>
      <trkpt lat="44.38646" lon="5.78504">
        <ele>766</ele>
        <time>2020-05-18T12:35:32Z</time>
      </trkpt>
      <trkpt lat="44.38634" lon="5.78478">
        <ele>765</ele>
        <time>2020-05-18T12:35:54Z</time>
      </trkpt>
      <trkpt lat="44.38619" lon="5.78453">
        <ele>764.40002441406</ele>
        <time>2020-05-18T12:36:18Z</time>
      </trkpt>
      <trkpt lat="44.38621" lon="5.78439">
        <ele>764.20001220703</ele>
        <time>2020-05-18T12:36:36Z</time>
      </trkpt>
      <trkpt lat="44.38614" lon="5.78421">
        <ele>763.59997558594</ele>
        <time>2020-05-18T12:36:59Z</time>
      </trkpt>
      <trkpt lat="44.38609" lon="5.78406">
        <ele>763.20001220703</ele>
        <time>2020-05-18T12:37:13Z</time>
      </trkpt>
      <trkpt lat="44.38604" lon="5.78402">
        <ele>763.20001220703</ele>
        <time>2020-05-18T12:37:19Z</time>
      </trkpt>
      <trkpt lat="44.38589" lon="5.78383">
        <ele>762</ele>
        <time>2020-05-18T12:37:39Z</time>
      </trkpt>
      <trkpt lat="44.38569" lon="5.7836">
        <ele>761.59997558594</ele>
        <time>2020-05-18T12:38:03Z</time>
      </trkpt>
      <trkpt lat="44.38553" lon="5.78343">
        <ele>762</ele>
        <time>2020-05-18T12:38:23Z</time>
      </trkpt>
      <trkpt lat="44.38552" lon="5.78343">
        <ele>762</ele>
        <time>2020-05-18T12:38:24Z</time>
      </trkpt>
      <trkpt lat="44.38536" lon="5.78318">
        <ele>762.40002441406</ele>
        <time>2020-05-18T12:38:48Z</time>
      </trkpt>
      <trkpt lat="44.38527" lon="5.78294">
        <ele>762.59997558594</ele>
        <time>2020-05-18T12:39:08Z</time>
      </trkpt>
      <trkpt lat="44.38516" lon="5.78275">
        <ele>762.40002441406</ele>
        <time>2020-05-18T12:39:24Z</time>
      </trkpt>
      <trkpt lat="44.38507" lon="5.78256">
        <ele>762.59997558594</ele>
        <time>2020-05-18T12:39:39Z</time>
      </trkpt>
      <trkpt lat="44.38507" lon="5.78254">
        <ele>762.59997558594</ele>
        <time>2020-05-18T12:39:42Z</time>
      </trkpt>
      <trkpt lat="44.38506" lon="5.78254">
        <ele>758.20001220703</ele>
        <time>2020-05-18T12:39:44Z</time>
      </trkpt>
      <trkpt lat="44.38506" lon="5.78254">
        <ele>758.40002441406</ele>
        <time>2020-05-18T12:39:45Z</time>
      </trkpt>
      <trkpt lat="44.38499" lon="5.78242">
        <ele>757.79998779297</ele>
        <time>2020-05-18T12:39:58Z</time>
      </trkpt>
      <trkpt lat="44.3849" lon="5.78226">
        <ele>757.59997558594</ele>
        <time>2020-05-18T12:40:14Z</time>
      </trkpt>
      <trkpt lat="44.38484" lon="5.7821">
        <ele>757.20001220703</ele>
        <time>2020-05-18T12:40:26Z</time>
      </trkpt>
      <trkpt lat="44.38473" lon="5.78176">
        <ele>757.20001220703</ele>
        <time>2020-05-18T12:40:51Z</time>
      </trkpt>
      <trkpt lat="44.38464" lon="5.78151">
        <ele>757.79998779297</ele>
        <time>2020-05-18T12:41:14Z</time>
      </trkpt>
      <trkpt lat="44.3846" lon="5.78126">
        <ele>758.20001220703</ele>
        <time>2020-05-18T12:41:32Z</time>
      </trkpt>
      <trkpt lat="44.38458" lon="5.78098">
        <ele>758.79998779297</ele>
        <time>2020-05-18T12:41:53Z</time>
      </trkpt>
      <trkpt lat="44.38452" lon="5.78083">
        <ele>759</ele>
        <time>2020-05-18T12:42:09Z</time>
      </trkpt>
      <trkpt lat="44.3845" lon="5.7807">
        <ele>759.20001220703</ele>
        <time>2020-05-18T12:42:48Z</time>
      </trkpt>
      <trkpt lat="44.3844" lon="5.78047">
        <ele>759.20001220703</ele>
        <time>2020-05-18T12:43:09Z</time>
      </trkpt>
      <trkpt lat="44.38427" lon="5.78028">
        <ele>759</ele>
        <time>2020-05-18T12:43:28Z</time>
      </trkpt>
      <trkpt lat="44.38423" lon="5.78024">
        <ele>759.20001220703</ele>
        <time>2020-05-18T12:43:32Z</time>
      </trkpt>
      <trkpt lat="44.38416" lon="5.78011">
        <ele>759</ele>
        <time>2020-05-18T12:43:44Z</time>
      </trkpt>
      <trkpt lat="44.38413" lon="5.77985">
        <ele>758</ele>
        <time>2020-05-18T12:44:01Z</time>
      </trkpt>
      <trkpt lat="44.38411" lon="5.77959">
        <ele>756.40002441406</ele>
        <time>2020-05-18T12:44:17Z</time>
      </trkpt>
      <trkpt lat="44.3841" lon="5.7794">
        <ele>755.20001220703</ele>
        <time>2020-05-18T12:44:34Z</time>
      </trkpt>
      <trkpt lat="44.38408" lon="5.77921">
        <ele>754.79998779297</ele>
        <time>2020-05-18T12:44:47Z</time>
      </trkpt>
      <trkpt lat="44.38408" lon="5.77916">
        <ele>754.79998779297</ele>
        <time>2020-05-18T12:44:51Z</time>
      </trkpt>
      <trkpt lat="44.38408" lon="5.77909">
        <ele>754.79998779297</ele>
        <time>2020-05-18T12:44:56Z</time>
      </trkpt>
      <trkpt lat="44.38406" lon="5.77892">
        <ele>754.59997558594</ele>
        <time>2020-05-18T12:45:08Z</time>
      </trkpt>
      <trkpt lat="44.38404" lon="5.77869">
        <ele>754</ele>
        <time>2020-05-18T12:45:23Z</time>
      </trkpt>
      <trkpt lat="44.38399" lon="5.77853">
        <ele>753.59997558594</ele>
        <time>2020-05-18T12:45:35Z</time>
      </trkpt>
      <trkpt lat="44.38395" lon="5.77834">
        <ele>753.79998779297</ele>
        <time>2020-05-18T12:45:49Z</time>
      </trkpt>
      <trkpt lat="44.38394" lon="5.77826">
        <ele>754</ele>
        <time>2020-05-18T12:45:55Z</time>
      </trkpt>
      <trkpt lat="44.38393" lon="5.77799">
        <ele>755.20001220703</ele>
        <time>2020-05-18T12:46:16Z</time>
      </trkpt>
      <trkpt lat="44.38394" lon="5.77777">
        <ele>756.20001220703</ele>
        <time>2020-05-18T12:46:34Z</time>
      </trkpt>
      <trkpt lat="44.38395" lon="5.77751">
        <ele>756.40002441406</ele>
        <time>2020-05-18T12:46:53Z</time>
      </trkpt>
      <trkpt lat="44.38397" lon="5.77734">
        <ele>756.40002441406</ele>
        <time>2020-05-18T12:47:06Z</time>
      </trkpt>
      <trkpt lat="44.38401" lon="5.77717">
        <ele>756.59997558594</ele>
        <time>2020-05-18T12:47:19Z</time>
      </trkpt>
      <trkpt lat="44.38401" lon="5.77691">
        <ele>756</ele>
        <time>2020-05-18T12:47:38Z</time>
      </trkpt>
      <trkpt lat="44.38396" lon="5.77661">
        <ele>755.20001220703</ele>
        <time>2020-05-18T12:47:59Z</time>
      </trkpt>
      <trkpt lat="44.38395" lon="5.77642">
        <ele>755</ele>
        <time>2020-05-18T12:48:12Z</time>
      </trkpt>
      <trkpt lat="44.3839" lon="5.77625">
        <ele>754.79998779297</ele>
        <time>2020-05-18T12:48:25Z</time>
      </trkpt>
      <trkpt lat="44.38384" lon="5.77605">
        <ele>754.79998779297</ele>
        <time>2020-05-18T12:48:41Z</time>
      </trkpt>
      <trkpt lat="44.38378" lon="5.77585">
        <ele>755.40002441406</ele>
        <time>2020-05-18T12:48:58Z</time>
      </trkpt>
      <trkpt lat="44.38369" lon="5.77564">
        <ele>754.59997558594</ele>
        <time>2020-05-18T12:49:16Z</time>
      </trkpt>
      <trkpt lat="44.38361" lon="5.77548">
        <ele>755</ele>
        <time>2020-05-18T12:49:29Z</time>
      </trkpt>
      <trkpt lat="44.38358" lon="5.77538">
        <ele>755</ele>
        <time>2020-05-18T12:49:36Z</time>
      </trkpt>
      <trkpt lat="44.38355" lon="5.77523">
        <ele>754.79998779297</ele>
        <time>2020-05-18T12:49:47Z</time>
      </trkpt>
      <trkpt lat="44.38354" lon="5.77503">
        <ele>755.20001220703</ele>
        <time>2020-05-18T12:50:03Z</time>
      </trkpt>
      <trkpt lat="44.38353" lon="5.77496">
        <ele>755.40002441406</ele>
        <time>2020-05-18T12:50:08Z</time>
      </trkpt>
      <trkpt lat="44.38351" lon="5.7749">
        <ele>755.40002441406</ele>
        <time>2020-05-18T12:50:12Z</time>
      </trkpt>
      <trkpt lat="44.38347" lon="5.77485">
        <ele>755.20001220703</ele>
        <time>2020-05-18T12:50:16Z</time>
      </trkpt>
      <trkpt lat="44.3834" lon="5.77473">
        <ele>754.79998779297</ele>
        <time>2020-05-18T12:50:27Z</time>
      </trkpt>
      <trkpt lat="44.38337" lon="5.7747">
        <ele>754.79998779297</ele>
        <time>2020-05-18T12:50:31Z</time>
      </trkpt>
      <trkpt lat="44.38333" lon="5.77463">
        <ele>754.79998779297</ele>
        <time>2020-05-18T12:50:41Z</time>
      </trkpt>
      <trkpt lat="44.38329" lon="5.77455">
        <ele>754.79998779297</ele>
        <time>2020-05-18T12:50:48Z</time>
      </trkpt>
      <trkpt lat="44.38327" lon="5.77454">
        <ele>754.59997558594</ele>
        <time>2020-05-18T12:50:50Z</time>
      </trkpt>
      <trkpt lat="44.38325" lon="5.77451">
        <ele>754.59997558594</ele>
        <time>2020-05-18T12:50:52Z</time>
      </trkpt>
      <trkpt lat="44.3832" lon="5.77446">
        <ele>754.59997558594</ele>
        <time>2020-05-18T12:50:59Z</time>
      </trkpt>
      <trkpt lat="44.38314" lon="5.77427">
        <ele>754.20001220703</ele>
        <time>2020-05-18T12:51:15Z</time>
      </trkpt>
      <trkpt lat="44.38314" lon="5.77423">
        <ele>754.20001220703</ele>
        <time>2020-05-18T12:51:19Z</time>
      </trkpt>
      <trkpt lat="44.38309" lon="5.77409">
        <ele>754.20001220703</ele>
        <time>2020-05-18T12:51:29Z</time>
      </trkpt>
      <trkpt lat="44.38306" lon="5.77404">
        <ele>754</ele>
        <time>2020-05-18T12:51:33Z</time>
      </trkpt>
      <trkpt lat="44.38304" lon="5.774">
        <ele>754</ele>
        <time>2020-05-18T12:51:36Z</time>
      </trkpt>
      <trkpt lat="44.38303" lon="5.77387">
        <ele>753.79998779297</ele>
        <time>2020-05-18T12:51:45Z</time>
      </trkpt>
      <trkpt lat="44.38303" lon="5.77376">
        <ele>753.79998779297</ele>
        <time>2020-05-18T12:51:53Z</time>
      </trkpt>
      <trkpt lat="44.38298" lon="5.77365">
        <ele>753.79998779297</ele>
        <time>2020-05-18T12:52:01Z</time>
      </trkpt>
      <trkpt lat="44.38298" lon="5.77361">
        <ele>753.79998779297</ele>
        <time>2020-05-18T12:52:04Z</time>
      </trkpt>
      <trkpt lat="44.38295" lon="5.77344">
        <ele>753.20001220703</ele>
        <time>2020-05-18T12:52:21Z</time>
      </trkpt>
      <trkpt lat="44.38293" lon="5.77328">
        <ele>753.20001220703</ele>
        <time>2020-05-18T12:52:35Z</time>
      </trkpt>
      <trkpt lat="44.38292" lon="5.77322">
        <ele>753.20001220703</ele>
        <time>2020-05-18T12:52:40Z</time>
      </trkpt>
      <trkpt lat="44.3829" lon="5.77317">
        <ele>753.20001220703</ele>
        <time>2020-05-18T12:52:45Z</time>
      </trkpt>
      <trkpt lat="44.38285" lon="5.77305">
        <ele>753.20001220703</ele>
        <time>2020-05-18T12:52:54Z</time>
      </trkpt>
      <trkpt lat="44.38282" lon="5.773">
        <ele>753</ele>
        <time>2020-05-18T12:52:59Z</time>
      </trkpt>
      <trkpt lat="44.38277" lon="5.77277">
        <ele>752.59997558594</ele>
        <time>2020-05-18T12:53:14Z</time>
      </trkpt>
      <trkpt lat="44.38275" lon="5.7727">
        <ele>752.59997558594</ele>
        <time>2020-05-18T12:53:20Z</time>
      </trkpt>
      <trkpt lat="44.38271" lon="5.77266">
        <ele>752.40002441406</ele>
        <time>2020-05-18T12:53:25Z</time>
      </trkpt>
      <trkpt lat="44.38264" lon="5.7726">
        <ele>752.20001220703</ele>
        <time>2020-05-18T12:53:34Z</time>
      </trkpt>
      <trkpt lat="44.38258" lon="5.77246">
        <ele>752.20001220703</ele>
        <time>2020-05-18T12:53:45Z</time>
      </trkpt>
      <trkpt lat="44.38257" lon="5.7724">
        <ele>752.20001220703</ele>
        <time>2020-05-18T12:53:50Z</time>
      </trkpt>
      <trkpt lat="44.38253" lon="5.77218">
        <ele>752.59997558594</ele>
        <time>2020-05-18T12:54:07Z</time>
      </trkpt>
      <trkpt lat="44.38249" lon="5.77202">
        <ele>753</ele>
        <time>2020-05-18T12:54:20Z</time>
      </trkpt>
      <trkpt lat="44.38248" lon="5.77182">
        <ele>753.20001220703</ele>
        <time>2020-05-18T12:54:36Z</time>
      </trkpt>
      <trkpt lat="44.38254" lon="5.77166">
        <ele>753.20001220703</ele>
        <time>2020-05-18T12:54:49Z</time>
      </trkpt>
      <trkpt lat="44.38255" lon="5.77165">
        <ele>753.20001220703</ele>
        <time>2020-05-18T12:54:50Z</time>
      </trkpt>
      <trkpt lat="44.38256" lon="5.77162">
        <ele>753.20001220703</ele>
        <time>2020-05-18T12:54:52Z</time>
      </trkpt>
      <trkpt lat="44.38263" lon="5.77146">
        <ele>753</ele>
        <time>2020-05-18T12:55:06Z</time>
      </trkpt>
      <trkpt lat="44.38268" lon="5.7712">
        <ele>753.20001220703</ele>
        <time>2020-05-18T12:55:25Z</time>
      </trkpt>
      <trkpt lat="44.3827" lon="5.77111">
        <ele>753.79998779297</ele>
        <time>2020-05-18T12:55:33Z</time>
      </trkpt>
      <trkpt lat="44.38268" lon="5.771">
        <ele>754.59997558594</ele>
        <time>2020-05-18T12:55:43Z</time>
      </trkpt>
      <trkpt lat="44.38266" lon="5.77086">
        <ele>755.20001220703</ele>
        <time>2020-05-18T12:55:58Z</time>
      </trkpt>
      <trkpt lat="44.38256" lon="5.77071">
        <ele>755.20001220703</ele>
        <time>2020-05-18T12:56:14Z</time>
      </trkpt>
      <trkpt lat="44.38254" lon="5.77053">
        <ele>755.79998779297</ele>
        <time>2020-05-18T12:56:31Z</time>
      </trkpt>
      <trkpt lat="44.38243" lon="5.77054">
        <ele>755.59997558594</ele>
        <time>2020-05-18T12:56:51Z</time>
      </trkpt>
      <trkpt lat="44.38232" lon="5.7707">
        <ele>755.79998779297</ele>
        <time>2020-05-18T12:57:14Z</time>
      </trkpt>
      <trkpt lat="44.38222" lon="5.77088">
        <ele>756</ele>
        <time>2020-05-18T12:57:38Z</time>
      </trkpt>
      <trkpt lat="44.38216" lon="5.77093">
        <ele>756.40002441406</ele>
        <time>2020-05-18T12:57:49Z</time>
      </trkpt>
      <trkpt lat="44.38202" lon="5.77111">
        <ele>756.59997558594</ele>
        <time>2020-05-18T12:58:10Z</time>
      </trkpt>
      <trkpt lat="44.38189" lon="5.77106">
        <ele>756.40002441406</ele>
        <time>2020-05-18T12:58:26Z</time>
      </trkpt>
      <trkpt lat="44.38178" lon="5.77096">
        <ele>756.20001220703</ele>
        <time>2020-05-18T12:58:41Z</time>
      </trkpt>
      <trkpt lat="44.38164" lon="5.77089">
        <ele>756.20001220703</ele>
        <time>2020-05-18T12:59:00Z</time>
      </trkpt>
      <trkpt lat="44.38152" lon="5.77087">
        <ele>754.79998779297</ele>
        <time>2020-05-18T12:59:18Z</time>
      </trkpt>
      <trkpt lat="44.38144" lon="5.77083">
        <ele>753.79998779297</ele>
        <time>2020-05-18T12:59:35Z</time>
      </trkpt>
      <trkpt lat="44.38134" lon="5.77077">
        <ele>753</ele>
        <time>2020-05-18T12:59:51Z</time>
      </trkpt>
      <trkpt lat="44.3813" lon="5.77076">
        <ele>751.59997558594</ele>
        <time>2020-05-18T12:59:55Z</time>
      </trkpt>
      <trkpt lat="44.3812" lon="5.77073">
        <ele>748.79998779297</ele>
        <time>2020-05-18T13:00:12Z</time>
      </trkpt>
      <trkpt lat="44.38118" lon="5.77068">
        <ele>748.79998779297</ele>
        <time>2020-05-18T13:00:56Z</time>
      </trkpt>
      <trkpt lat="44.38113" lon="5.77061">
        <ele>748.59997558594</ele>
        <time>2020-05-18T13:01:03Z</time>
      </trkpt>
      <trkpt lat="44.38104" lon="5.77048">
        <ele>748</ele>
        <time>2020-05-18T13:01:20Z</time>
      </trkpt>
      <trkpt lat="44.38095" lon="5.77018">
        <ele>745</ele>
        <time>2020-05-18T13:01:43Z</time>
      </trkpt>
      <trkpt lat="44.38095" lon="5.77007">
        <ele>744.20001220703</ele>
        <time>2020-05-18T13:01:50Z</time>
      </trkpt>
      <trkpt lat="44.38097" lon="5.76994">
        <ele>743.79998779297</ele>
        <time>2020-05-18T13:02:00Z</time>
      </trkpt>
      <trkpt lat="44.38098" lon="5.76991">
        <ele>743.59997558594</ele>
        <time>2020-05-18T13:02:02Z</time>
      </trkpt>
      <trkpt lat="44.3811" lon="5.76969">
        <ele>742.20001220703</ele>
        <time>2020-05-18T13:02:23Z</time>
      </trkpt>
      <trkpt lat="44.3812" lon="5.76953">
        <ele>741.20001220703</ele>
        <time>2020-05-18T13:02:40Z</time>
      </trkpt>
      <trkpt lat="44.38127" lon="5.76923">
        <ele>740.20001220703</ele>
        <time>2020-05-18T13:03:03Z</time>
      </trkpt>
      <trkpt lat="44.38121" lon="5.76896">
        <ele>739.40002441406</ele>
        <time>2020-05-18T13:03:22Z</time>
      </trkpt>
      <trkpt lat="44.3811" lon="5.76879">
        <ele>737.40002441406</ele>
        <time>2020-05-18T13:03:39Z</time>
      </trkpt>
      <trkpt lat="44.38104" lon="5.7688">
        <ele>736.79998779297</ele>
        <time>2020-05-18T13:04:09Z</time>
      </trkpt>
      <trkpt lat="44.38088" lon="5.76878">
        <ele>736.20001220703</ele>
        <time>2020-05-18T13:04:26Z</time>
      </trkpt>
      <trkpt lat="44.38076" lon="5.7689">
        <ele>735.79998779297</ele>
        <time>2020-05-18T13:04:42Z</time>
      </trkpt>
      <trkpt lat="44.38075" lon="5.76891">
        <ele>735.59997558594</ele>
        <time>2020-05-18T13:04:44Z</time>
      </trkpt>
      <trkpt lat="44.38064" lon="5.76905">
        <ele>734.79998779297</ele>
        <time>2020-05-18T13:05:00Z</time>
      </trkpt>
      <trkpt lat="44.38049" lon="5.76911">
        <ele>734</ele>
        <time>2020-05-18T13:05:15Z</time>
      </trkpt>
      <trkpt lat="44.38029" lon="5.76911">
        <ele>732.20001220703</ele>
        <time>2020-05-18T13:05:36Z</time>
      </trkpt>
      <trkpt lat="44.38004" lon="5.76912">
        <ele>730.59997558594</ele>
        <time>2020-05-18T13:06:00Z</time>
      </trkpt>
      <trkpt lat="44.37983" lon="5.76915">
        <ele>728.59997558594</ele>
        <time>2020-05-18T13:06:21Z</time>
      </trkpt>
      <trkpt lat="44.37968" lon="5.76913">
        <ele>727.79998779297</ele>
        <time>2020-05-18T13:06:36Z</time>
      </trkpt>
      <trkpt lat="44.37955" lon="5.76902">
        <ele>726.79998779297</ele>
        <time>2020-05-18T13:06:50Z</time>
      </trkpt>
      <trkpt lat="44.37948" lon="5.76895">
        <ele>726</ele>
        <time>2020-05-18T13:06:58Z</time>
      </trkpt>
      <trkpt lat="44.37932" lon="5.7689">
        <ele>725.40002441406</ele>
        <time>2020-05-18T13:07:15Z</time>
      </trkpt>
      <trkpt lat="44.3793" lon="5.76889">
        <ele>725.40002441406</ele>
        <time>2020-05-18T13:07:17Z</time>
      </trkpt>
      <trkpt lat="44.37927" lon="5.7689">
        <ele>725.40002441406</ele>
        <time>2020-05-18T13:07:20Z</time>
      </trkpt>
      <trkpt lat="44.37913" lon="5.76883">
        <ele>725.20001220703</ele>
        <time>2020-05-18T13:07:36Z</time>
      </trkpt>
      <trkpt lat="44.37906" lon="5.7687">
        <ele>724.59997558594</ele>
        <time>2020-05-18T13:07:52Z</time>
      </trkpt>
      <trkpt lat="44.37904" lon="5.76837">
        <ele>722.40002441406</ele>
        <time>2020-05-18T13:08:13Z</time>
      </trkpt>
      <trkpt lat="44.37901" lon="5.76819">
        <ele>721</ele>
        <time>2020-05-18T13:08:28Z</time>
      </trkpt>
      <trkpt lat="44.37899" lon="5.76812">
        <ele>720.40002441406</ele>
        <time>2020-05-18T13:08:33Z</time>
      </trkpt>
      <trkpt lat="44.37894" lon="5.76793">
        <ele>719.40002441406</ele>
        <time>2020-05-18T13:08:47Z</time>
      </trkpt>
      <trkpt lat="44.37886" lon="5.76771">
        <ele>718.20001220703</ele>
        <time>2020-05-18T13:09:05Z</time>
      </trkpt>
      <trkpt lat="44.37877" lon="5.76754">
        <ele>717.59997558594</ele>
        <time>2020-05-18T13:09:20Z</time>
      </trkpt>
      <trkpt lat="44.37866" lon="5.76746">
        <ele>716.40002441406</ele>
        <time>2020-05-18T13:09:34Z</time>
      </trkpt>
      <trkpt lat="44.37853" lon="5.76738">
        <ele>715</ele>
        <time>2020-05-18T13:09:49Z</time>
      </trkpt>
      <trkpt lat="44.3784" lon="5.76726">
        <ele>712.59997558594</ele>
        <time>2020-05-18T13:10:07Z</time>
      </trkpt>
      <trkpt lat="44.3784" lon="5.76717">
        <ele>711.59997558594</ele>
        <time>2020-05-18T13:10:20Z</time>
      </trkpt>
      <trkpt lat="44.37842" lon="5.76716">
        <ele>686.40002441406</ele>
        <time>2020-05-18T13:10:46Z</time>
      </trkpt>
    </trkseg>
  </trk>
</gpx>